<?xml version='1.0' encoding='UTF-8'?><gpx version="1.1" creator="JPX - https://github.com/jenetics/jpx" xmlns="http://www.topografix.com/GPX/1/1"><trk><trkseg><trkpt lat="46.5582302" lon="12.558305"><ele>918.0</ele><time>2026-04-24T16:25:41.967Z</time></trkpt><trkpt lat="46.5581771" lon="12.558235"><ele>918.0</ele><time>2026-04-24T16:25:44.056Z</time></trkpt><trkpt lat="46.5581744" lon="12.5581019"><ele>918.0</ele><time>2026-04-24T16:25:47.055Z</time></trkpt><trkpt lat="46.5581352" lon="12.5579943"><ele>918.0</ele><time>2026-04-24T16:25:50.056Z</time></trkpt><trkpt lat="46.5580964" lon="12.5578971"><ele>918.0</ele><time>2026-04-24T16:25:54.056Z</time></trkpt><trkpt lat="46.5581099" lon="12.557788"><ele>918.0</ele><time>2026-04-24T16:25:58.057Z</time></trkpt><trkpt lat="46.5581758" lon="12.5577248"><ele>918.1666666666666</ele><time>2026-04-24T16:26:02.053Z</time></trkpt><trkpt lat="46.5582355" lon="12.5576344"><ele>918.3333333333333</ele><time>2026-04-24T16:26:06.091Z</time></trkpt><trkpt lat="46.5582789" lon="12.5575314"><ele>918.5</ele><time>2026-04-24T16:26:10.063Z</time></trkpt><trkpt lat="46.5583101" lon="12.557422"><ele>918.6666666666666</ele><time>2026-04-24T16:26:13.055Z</time></trkpt><trkpt lat="46.5583475" lon="12.5573183"><ele>918.8333333333333</ele><time>2026-04-24T16:26:16.057Z</time></trkpt><trkpt lat="46.5583821" lon="12.5572408"><ele>919.0</ele><time>2026-04-24T16:26:18.062Z</time></trkpt><trkpt lat="46.558438" lon="12.5571728"><ele>918.9999999999999</ele><time>2026-04-24T16:26:20.061Z</time></trkpt><trkpt lat="46.558509" lon="12.5571207"><ele>919.0</ele><time>2026-04-24T16:26:22.09Z</time></trkpt><trkpt lat="46.5585787" lon="12.5570734"><ele>919.0</ele><time>2026-04-24T16:26:24.012Z</time></trkpt><trkpt lat="46.5586504" lon="12.5570261"><ele>919.0</ele><time>2026-04-24T16:26:26.062Z</time></trkpt><trkpt lat="46.5587304" lon="12.5569941"><ele>918.9999999999999</ele><time>2026-04-24T16:26:28.059Z</time></trkpt><trkpt lat="46.5588094" lon="12.5569793"><ele>919.0</ele><time>2026-04-24T16:26:30.066Z</time></trkpt><trkpt lat="46.5588778" lon="12.556956"><ele>917.7142857142857</ele><time>2026-04-24T16:26:32.062Z</time></trkpt><trkpt lat="46.5589444" lon="12.5569326"><ele>916.4285714285713</ele><time>2026-04-24T16:26:34.061Z</time></trkpt><trkpt lat="46.5590078" lon="12.556909"><ele>915.1428571428571</ele><time>2026-04-24T16:26:36.083Z</time></trkpt><trkpt lat="46.5590655" lon="12.5568714"><ele>913.8571428571429</ele><time>2026-04-24T16:26:38.059Z</time></trkpt><trkpt lat="46.5591146" lon="12.5568074"><ele>912.5714285714286</ele><time>2026-04-24T16:26:40.052Z</time></trkpt><trkpt lat="46.5591327" lon="12.556679"><ele>911.2857142857142</ele><time>2026-04-24T16:26:43.07Z</time></trkpt><trkpt lat="46.5591158" lon="12.5565565"><ele>910.0</ele><time>2026-04-24T16:26:46.064Z</time></trkpt><trkpt lat="46.5590835" lon="12.5564457"><ele>909.9999999999999</ele><time>2026-04-24T16:26:49.06Z</time></trkpt><trkpt lat="46.5590475" lon="12.5563683"><ele>910.0</ele><time>2026-04-24T16:26:51.055Z</time></trkpt><trkpt lat="46.5590089" lon="12.5562758"><ele>910.0</ele><time>2026-04-24T16:26:54.065Z</time></trkpt><trkpt lat="46.5589787" lon="12.5561731"><ele>910.0</ele><time>2026-04-24T16:26:56.994Z</time></trkpt><trkpt lat="46.5589634" lon="12.5560704"><ele>909.9999999999999</ele><time>2026-04-24T16:27:00.056Z</time></trkpt><trkpt lat="46.5589448" lon="12.5559287"><ele>910.0</ele><time>2026-04-24T16:27:04.072Z</time></trkpt><trkpt lat="46.5589281" lon="12.5558102"><ele>910.4999999999999</ele><time>2026-04-24T16:27:07.06Z</time></trkpt><trkpt lat="46.5588945" lon="12.5556824"><ele>911.0</ele><time>2026-04-24T16:27:10.073Z</time></trkpt><trkpt lat="46.5588804" lon="12.5555924"><ele>911.5</ele><time>2026-04-24T16:27:12.061Z</time></trkpt><trkpt lat="46.5588718" lon="12.5554896"><ele>912.0</ele><time>2026-04-24T16:27:14.064Z</time></trkpt><trkpt lat="46.5588609" lon="12.5553676"><ele>912.4999999999999</ele><time>2026-04-24T16:27:16.101Z</time></trkpt><trkpt lat="46.5588482" lon="12.5552561"><ele>913.0</ele><time>2026-04-24T16:27:18.098Z</time></trkpt><trkpt lat="46.5588357" lon="12.5551653"><ele>913.1666666666666</ele><time>2026-04-24T16:27:20.061Z</time></trkpt><trkpt lat="46.5588151" lon="12.555056"><ele>913.3333333333333</ele><time>2026-04-24T16:27:23.086Z</time></trkpt><trkpt lat="46.5587937" lon="12.5549507"><ele>913.5</ele><time>2026-04-24T16:27:26.084Z</time></trkpt><trkpt lat="46.5587715" lon="12.5548361"><ele>913.6666666666667</ele><time>2026-04-24T16:27:29.057Z</time></trkpt><trkpt lat="46.5587457" lon="12.5547355"><ele>913.8333333333334</ele><time>2026-04-24T16:27:32.064Z</time></trkpt><trkpt lat="46.5587049" lon="12.5545618"><ele>914.0</ele><time>2026-04-24T16:27:36.089Z</time></trkpt><trkpt lat="46.5587005" lon="12.554459"><ele>913.0000000000001</ele><time>2026-04-24T16:27:38.059Z</time></trkpt><trkpt lat="46.5586969" lon="12.5543581"><ele>912.0</ele><time>2026-04-24T16:27:40.057Z</time></trkpt><trkpt lat="46.5586815" lon="12.5542489"><ele>911.0000000000001</ele><time>2026-04-24T16:27:42Z</time></trkpt><trkpt lat="46.5586593" lon="12.5541506"><ele>910.0000000000001</ele><time>2026-04-24T16:27:44.056Z</time></trkpt><trkpt lat="46.5586358" lon="12.5540639"><ele>909.0</ele><time>2026-04-24T16:27:46.045Z</time></trkpt><trkpt lat="46.5586086" lon="12.553941"><ele>908.0000000000001</ele><time>2026-04-24T16:27:48.984Z</time></trkpt><trkpt lat="46.5585861" lon="12.5538502"><ele>907.0000000000001</ele><time>2026-04-24T16:27:51.055Z</time></trkpt><trkpt lat="46.5585551" lon="12.5537312"><ele>907.1666666666666</ele><time>2026-04-24T16:27:54.064Z</time></trkpt><trkpt lat="46.5585332" lon="12.5536151"><ele>907.3333333333333</ele><time>2026-04-24T16:27:57.056Z</time></trkpt><trkpt lat="46.5585217" lon="12.553519"><ele>907.5</ele><time>2026-04-24T16:27:59.06Z</time></trkpt><trkpt lat="46.5585089" lon="12.5534287"><ele>907.6666666666667</ele><time>2026-04-24T16:28:01.067Z</time></trkpt><trkpt lat="46.5584906" lon="12.5533053"><ele>907.8333333333334</ele><time>2026-04-24T16:28:04.071Z</time></trkpt><trkpt lat="46.5584813" lon="12.5531748"><ele>908.0</ele><time>2026-04-24T16:28:07.06Z</time></trkpt><trkpt lat="46.5584743" lon="12.5530485"><ele>908.0000000000001</ele><time>2026-04-24T16:28:10.058Z</time></trkpt><trkpt lat="46.5584614" lon="12.552926"><ele>908.0</ele><time>2026-04-24T16:28:13.083Z</time></trkpt><trkpt lat="46.5584491" lon="12.552794"><ele>908.0</ele><time>2026-04-24T16:28:16.068Z</time></trkpt><trkpt lat="46.5584404" lon="12.5526957"><ele>908.0</ele><time>2026-04-24T16:28:18.126Z</time></trkpt><trkpt lat="46.5584229" lon="12.5525759"><ele>908.0000000000001</ele><time>2026-04-24T16:28:21.059Z</time></trkpt><trkpt lat="46.558398" lon="12.5524909"><ele>908.0</ele><time>2026-04-24T16:28:23.058Z</time></trkpt><trkpt lat="46.558376" lon="12.5524012"><ele>908.1666666666667</ele><time>2026-04-24T16:28:25.056Z</time></trkpt><trkpt lat="46.5583495" lon="12.5522831"><ele>908.3333333333334</ele><time>2026-04-24T16:28:28.038Z</time></trkpt><trkpt lat="46.5583353" lon="12.5521575"><ele>908.5</ele><time>2026-04-24T16:28:31.073Z</time></trkpt><trkpt lat="46.5583197" lon="12.5520431"><ele>908.6666666666667</ele><time>2026-04-24T16:28:34.06Z</time></trkpt><trkpt lat="46.5583002" lon="12.5519103"><ele>908.8333333333334</ele><time>2026-04-24T16:28:37.077Z</time></trkpt><trkpt lat="46.5582784" lon="12.5517877"><ele>909.0</ele><time>2026-04-24T16:28:40.055Z</time></trkpt><trkpt lat="46.5582688" lon="12.551678"><ele>909.0</ele><time>2026-04-24T16:28:43.057Z</time></trkpt><trkpt lat="46.5582551" lon="12.5515648"><ele>909.0</ele><time>2026-04-24T16:28:46.065Z</time></trkpt><trkpt lat="46.5582463" lon="12.5514415"><ele>909.0</ele><time>2026-04-24T16:28:49.061Z</time></trkpt><trkpt lat="46.558236" lon="12.5513347"><ele>909.0</ele><time>2026-04-24T16:28:51.962Z</time></trkpt><trkpt lat="46.5581953" lon="12.5512163"><ele>909.0</ele><time>2026-04-24T16:28:54.967Z</time></trkpt><trkpt lat="46.5581486" lon="12.5511104"><ele>909.0</ele><time>2026-04-24T16:28:58.056Z</time></trkpt><trkpt lat="46.5581544" lon="12.5510032"><ele>909.3333333333334</ele><time>2026-04-24T16:29:01.056Z</time></trkpt><trkpt lat="46.5581339" lon="12.5509005"><ele>909.6666666666667</ele><time>2026-04-24T16:29:04.056Z</time></trkpt><trkpt lat="46.5580919" lon="12.5507982"><ele>910.0</ele><time>2026-04-24T16:29:07.056Z</time></trkpt><trkpt lat="46.5580504" lon="12.5506912"><ele>910.3333333333334</ele><time>2026-04-24T16:29:10.069Z</time></trkpt><trkpt lat="46.5580127" lon="12.5505686"><ele>910.6666666666667</ele><time>2026-04-24T16:29:13.059Z</time></trkpt><trkpt lat="46.5579928" lon="12.5504675"><ele>911.0</ele><time>2026-04-24T16:29:15.063Z</time></trkpt><trkpt lat="46.5579944" lon="12.5503592"><ele>911.5000000000001</ele><time>2026-04-24T16:29:17.056Z</time></trkpt><trkpt lat="46.5580028" lon="12.5502401"><ele>912.0</ele><time>2026-04-24T16:29:20.062Z</time></trkpt><trkpt lat="46.5580088" lon="12.5501227"><ele>912.5</ele><time>2026-04-24T16:29:23.062Z</time></trkpt><trkpt lat="46.5580098" lon="12.5499896"><ele>913.0</ele><time>2026-04-24T16:29:26.096Z</time></trkpt><trkpt lat="46.5580197" lon="12.5498911"><ele>913.5000000000001</ele><time>2026-04-24T16:29:28.059Z</time></trkpt><trkpt lat="46.5580155" lon="12.5497639"><ele>914.0</ele><time>2026-04-24T16:29:31.077Z</time></trkpt><trkpt lat="46.5580036" lon="12.5496427"><ele>913.8333333333334</ele><time>2026-04-24T16:29:34.092Z</time></trkpt><trkpt lat="46.5579938" lon="12.5495242"><ele>913.6666666666667</ele><time>2026-04-24T16:29:37.059Z</time></trkpt><trkpt lat="46.5580294" lon="12.5493992"><ele>913.5</ele><time>2026-04-24T16:29:40.057Z</time></trkpt><trkpt lat="46.5580553" lon="12.5493124"><ele>913.3333333333333</ele><time>2026-04-24T16:29:42.084Z</time></trkpt><trkpt lat="46.558066" lon="12.5491794"><ele>913.1666666666666</ele><time>2026-04-24T16:29:45.065Z</time></trkpt><trkpt lat="46.5580867" lon="12.5490627"><ele>913.0</ele><time>2026-04-24T16:29:48.066Z</time></trkpt><trkpt lat="46.5581421" lon="12.5489626"><ele>912.9999999999999</ele><time>2026-04-24T16:29:51.053Z</time></trkpt><trkpt lat="46.5582275" lon="12.5489172"><ele>913.0</ele><time>2026-04-24T16:29:54.061Z</time></trkpt><trkpt lat="46.5582913" lon="12.5489171"><ele>913.0</ele><time>2026-04-24T16:29:56.065Z</time></trkpt><trkpt lat="46.5583755" lon="12.5489009"><ele>913.0</ele><time>2026-04-24T16:29:59.08Z</time></trkpt><trkpt lat="46.5584602" lon="12.548862"><ele>912.9999999999999</ele><time>2026-04-24T16:30:02.061Z</time></trkpt><trkpt lat="46.5585242" lon="12.5488415"><ele>913.0</ele><time>2026-04-24T16:30:04.064Z</time></trkpt><trkpt lat="46.5586085" lon="12.5488015"><ele>912.9999999999999</ele><time>2026-04-24T16:30:07.057Z</time></trkpt><trkpt lat="46.5586674" lon="12.5487592"><ele>913.0</ele><time>2026-04-24T16:30:10.082Z</time></trkpt><trkpt lat="46.5587321" lon="12.5487116"><ele>913.0</ele><time>2026-04-24T16:30:14.059Z</time></trkpt><trkpt lat="46.5588136" lon="12.5486876"><ele>913.0</ele><time>2026-04-24T16:30:19.063Z</time></trkpt><trkpt lat="46.5588863" lon="12.5486781"><ele>912.9999999999999</ele><time>2026-04-24T16:30:22.091Z</time></trkpt><trkpt lat="46.5589602" lon="12.5486026"><ele>913.0</ele><time>2026-04-24T16:30:25.104Z</time></trkpt><trkpt lat="46.5589912" lon="12.5484848"><ele>912.9999999999999</ele><time>2026-04-24T16:30:27.069Z</time></trkpt><trkpt lat="46.5590155" lon="12.5483871"><ele>913.0</ele><time>2026-04-24T16:30:29.058Z</time></trkpt><trkpt lat="46.5590396" lon="12.5482817"><ele>913.0</ele><time>2026-04-24T16:30:30.965Z</time></trkpt><trkpt lat="46.5590649" lon="12.5481484"><ele>913.0</ele><time>2026-04-24T16:30:33.056Z</time></trkpt><trkpt lat="46.5590851" lon="12.5480428"><ele>912.9999999999999</ele><time>2026-04-24T16:30:35.058Z</time></trkpt><trkpt lat="46.5590963" lon="12.5479327"><ele>913.0</ele><time>2026-04-24T16:30:37.064Z</time></trkpt><trkpt lat="46.5590937" lon="12.5478215"><ele>912.7142857142856</ele><time>2026-04-24T16:30:39.062Z</time></trkpt><trkpt lat="46.5590728" lon="12.547717"><ele>912.4285714285713</ele><time>2026-04-24T16:30:42.063Z</time></trkpt><trkpt lat="46.5590416" lon="12.5476163"><ele>912.1428571428571</ele><time>2026-04-24T16:30:46.059Z</time></trkpt><trkpt lat="46.559016" lon="12.5475313"><ele>911.8571428571428</ele><time>2026-04-24T16:30:49.065Z</time></trkpt><trkpt lat="46.5590005" lon="12.5474342"><ele>911.5714285714284</ele><time>2026-04-24T16:30:52.057Z</time></trkpt><trkpt lat="46.5590166" lon="12.5473097"><ele>911.2857142857143</ele><time>2026-04-24T16:30:55.057Z</time></trkpt><trkpt lat="46.5590681" lon="12.5472545"><ele>911.0</ele><time>2026-04-24T16:30:57.063Z</time></trkpt><trkpt lat="46.5591517" lon="12.5471988"><ele>911.0000000000001</ele><time>2026-04-24T16:31:00.074Z</time></trkpt><trkpt lat="46.5592207" lon="12.5471457"><ele>911.0</ele><time>2026-04-24T16:31:03.077Z</time></trkpt><trkpt lat="46.5592737" lon="12.5470917"><ele>911.0</ele><time>2026-04-24T16:31:06.015Z</time></trkpt><trkpt lat="46.5593404" lon="12.5470331"><ele>911.0</ele><time>2026-04-24T16:31:09.034Z</time></trkpt><trkpt lat="46.5594268" lon="12.54699"><ele>911.0000000000001</ele><time>2026-04-24T16:31:12.086Z</time></trkpt><trkpt lat="46.5595151" lon="12.5469374"><ele>911.0</ele><time>2026-04-24T16:31:15.066Z</time></trkpt><trkpt lat="46.5595839" lon="12.5469159"><ele>911.7142857142858</ele><time>2026-04-24T16:31:17.098Z</time></trkpt><trkpt lat="46.5596488" lon="12.5469061"><ele>912.4285714285713</ele><time>2026-04-24T16:31:19.062Z</time></trkpt><trkpt lat="46.559713" lon="12.5468883"><ele>913.1428571428571</ele><time>2026-04-24T16:31:21.059Z</time></trkpt><trkpt lat="46.5597738" lon="12.5468636"><ele>913.8571428571429</ele><time>2026-04-24T16:31:23.019Z</time></trkpt><trkpt lat="46.5598363" lon="12.5468263"><ele>914.5714285714287</ele><time>2026-04-24T16:31:25.058Z</time></trkpt><trkpt lat="46.5598915" lon="12.546777"><ele>915.2857142857142</ele><time>2026-04-24T16:31:27.078Z</time></trkpt><trkpt lat="46.5599676" lon="12.5467044"><ele>916.0</ele><time>2026-04-24T16:31:30.078Z</time></trkpt><trkpt lat="46.5600436" lon="12.5466451"><ele>915.9999999999999</ele><time>2026-04-24T16:31:33.089Z</time></trkpt><trkpt lat="46.5601234" lon="12.5466097"><ele>916.0</ele><time>2026-04-24T16:31:36.057Z</time></trkpt><trkpt lat="46.5601947" lon="12.5465648"><ele>916.0</ele><time>2026-04-24T16:31:39.06Z</time></trkpt><trkpt lat="46.5602654" lon="12.5465323"><ele>916.0</ele><time>2026-04-24T16:31:42.06Z</time></trkpt><trkpt lat="46.5603285" lon="12.5464677"><ele>915.9999999999999</ele><time>2026-04-24T16:31:45.068Z</time></trkpt><trkpt lat="46.5603885" lon="12.5463913"><ele>916.0</ele><time>2026-04-24T16:31:48.058Z</time></trkpt><trkpt lat="46.5604484" lon="12.5463099"><ele>915.6666666666666</ele><time>2026-04-24T16:31:51.058Z</time></trkpt><trkpt lat="46.5604972" lon="12.5462267"><ele>915.3333333333333</ele><time>2026-04-24T16:31:54.066Z</time></trkpt><trkpt lat="46.5605467" lon="12.5461347"><ele>915.0</ele><time>2026-04-24T16:31:57.085Z</time></trkpt><trkpt lat="46.5606116" lon="12.5460422"><ele>914.6666666666667</ele><time>2026-04-24T16:32:01.055Z</time></trkpt><trkpt lat="46.5606801" lon="12.5459824"><ele>914.3333333333334</ele><time>2026-04-24T16:32:04.088Z</time></trkpt><trkpt lat="46.5607477" lon="12.5459206"><ele>914.0</ele><time>2026-04-24T16:32:07.061Z</time></trkpt><trkpt lat="46.5608098" lon="12.5458536"><ele>914.8333333333334</ele><time>2026-04-24T16:32:10.061Z</time></trkpt><trkpt lat="46.5608706" lon="12.5457929"><ele>915.6666666666667</ele><time>2026-04-24T16:32:13.064Z</time></trkpt><trkpt lat="46.5609329" lon="12.545729"><ele>916.5</ele><time>2026-04-24T16:32:16.065Z</time></trkpt><trkpt lat="46.5609931" lon="12.5456505"><ele>917.3333333333333</ele><time>2026-04-24T16:32:19.059Z</time></trkpt><trkpt lat="46.5610539" lon="12.5455841"><ele>918.1666666666666</ele><time>2026-04-24T16:32:22.055Z</time></trkpt><trkpt lat="46.5611199" lon="12.5455273"><ele>919.0</ele><time>2026-04-24T16:32:25.056Z</time></trkpt><trkpt lat="46.5611841" lon="12.5454672"><ele>918.8333333333333</ele><time>2026-04-24T16:32:28.065Z</time></trkpt><trkpt lat="46.5612522" lon="12.5454103"><ele>918.6666666666666</ele><time>2026-04-24T16:32:31.056Z</time></trkpt><trkpt lat="46.5613203" lon="12.5453452"><ele>918.5</ele><time>2026-04-24T16:32:34.055Z</time></trkpt><trkpt lat="46.5613853" lon="12.5452824"><ele>918.3333333333333</ele><time>2026-04-24T16:32:37.07Z</time></trkpt><trkpt lat="46.5614482" lon="12.5452153"><ele>918.1666666666666</ele><time>2026-04-24T16:32:39.987Z</time></trkpt><trkpt lat="46.5615223" lon="12.545161"><ele>918.0</ele><time>2026-04-24T16:32:42.993Z</time></trkpt><trkpt lat="46.5615939" lon="12.5450807"><ele>919.0</ele><time>2026-04-24T16:32:46.063Z</time></trkpt><trkpt lat="46.5616644" lon="12.5450196"><ele>920.0</ele><time>2026-04-24T16:32:49.181Z</time></trkpt><trkpt lat="46.5617409" lon="12.5449542"><ele>921.0</ele><time>2026-04-24T16:32:52.585Z</time></trkpt><trkpt lat="46.5618004" lon="12.5449135"><ele>922.0</ele><time>2026-04-24T16:32:55.063Z</time></trkpt><trkpt lat="46.5618758" lon="12.5448643"><ele>923.0</ele><time>2026-04-24T16:32:58.066Z</time></trkpt><trkpt lat="46.5619509" lon="12.5448124"><ele>924.0</ele><time>2026-04-24T16:33:01.094Z</time></trkpt><trkpt lat="46.5620245" lon="12.5447562"><ele>923.3333333333334</ele><time>2026-04-24T16:33:04.061Z</time></trkpt><trkpt lat="46.5620958" lon="12.5447173"><ele>922.6666666666667</ele><time>2026-04-24T16:33:07.056Z</time></trkpt><trkpt lat="46.5621713" lon="12.5446934"><ele>922.0</ele><time>2026-04-24T16:33:10.067Z</time></trkpt><trkpt lat="46.5622423" lon="12.5446262"><ele>921.3333333333334</ele><time>2026-04-24T16:33:13.056Z</time></trkpt><trkpt lat="46.5623161" lon="12.5445588"><ele>920.6666666666667</ele><time>2026-04-24T16:33:16.055Z</time></trkpt><trkpt lat="46.5623834" lon="12.5444807"><ele>920.0</ele><time>2026-04-24T16:33:19.06Z</time></trkpt><trkpt lat="46.5624686" lon="12.5444312"><ele>920.8333333333334</ele><time>2026-04-24T16:33:22.057Z</time></trkpt><trkpt lat="46.562551" lon="12.5443893"><ele>921.6666666666667</ele><time>2026-04-24T16:33:25.056Z</time></trkpt><trkpt lat="46.5626296" lon="12.544361"><ele>922.5</ele><time>2026-04-24T16:33:28.032Z</time></trkpt><trkpt lat="46.5627071" lon="12.5443176"><ele>923.3333333333333</ele><time>2026-04-24T16:33:31.055Z</time></trkpt><trkpt lat="46.5627813" lon="12.5442701"><ele>924.1666666666666</ele><time>2026-04-24T16:33:34.058Z</time></trkpt><trkpt lat="46.5628546" lon="12.5442143"><ele>925.0</ele><time>2026-04-24T16:33:37.062Z</time></trkpt><trkpt lat="46.5629308" lon="12.5441281"><ele>924.9999999999999</ele><time>2026-04-24T16:33:41.056Z</time></trkpt><trkpt lat="46.5629799" lon="12.5440588"><ele>925.0</ele><time>2026-04-24T16:33:44.057Z</time></trkpt><trkpt lat="46.5630291" lon="12.5439666"><ele>925.0</ele><time>2026-04-24T16:33:47.056Z</time></trkpt><trkpt lat="46.5630977" lon="12.5438916"><ele>925.0</ele><time>2026-04-24T16:33:50.056Z</time></trkpt><trkpt lat="46.563175" lon="12.5438153"><ele>924.9999999999999</ele><time>2026-04-24T16:33:53.056Z</time></trkpt><trkpt lat="46.5632314" lon="12.5437692"><ele>925.0</ele><time>2026-04-24T16:33:55.056Z</time></trkpt><trkpt lat="46.5633177" lon="12.5437054"><ele>929.4999999999999</ele><time>2026-04-24T16:33:58.056Z</time></trkpt><trkpt lat="46.5633371" lon="12.5436104"><ele>934.0</ele><time>2026-04-24T16:34:00.003Z</time></trkpt><trkpt lat="46.5633901" lon="12.5435572"><ele>938.5</ele><time>2026-04-24T16:34:02.055Z</time></trkpt><trkpt lat="46.5634693" lon="12.5435145"><ele>943.0</ele><time>2026-04-24T16:34:05.07Z</time></trkpt><trkpt lat="46.5635364" lon="12.543438"><ele>947.4999999999999</ele><time>2026-04-24T16:34:08.962Z</time></trkpt><trkpt lat="46.5636204" lon="12.5433951"><ele>952.0</ele><time>2026-04-24T16:34:11.977Z</time></trkpt><trkpt lat="46.563688" lon="12.5433397"><ele>951.1428571428571</ele><time>2026-04-24T16:34:15.054Z</time></trkpt><trkpt lat="46.5637522" lon="12.5432685"><ele>950.2857142857142</ele><time>2026-04-24T16:34:18.064Z</time></trkpt><trkpt lat="46.5638101" lon="12.543198"><ele>949.4285714285714</ele><time>2026-04-24T16:34:21.046Z</time></trkpt><trkpt lat="46.5638531" lon="12.5431013"><ele>948.5714285714286</ele><time>2026-04-24T16:34:26.071Z</time></trkpt><trkpt lat="46.5638925" lon="12.5430207"><ele>947.7142857142857</ele><time>2026-04-24T16:34:30.057Z</time></trkpt><trkpt lat="46.5639268" lon="12.5429355"><ele>946.8571428571429</ele><time>2026-04-24T16:34:33.088Z</time></trkpt><trkpt lat="46.5639797" lon="12.542866"><ele>946.0</ele><time>2026-04-24T16:34:35.057Z</time></trkpt><trkpt lat="46.5640258" lon="12.5427974"><ele>945.9999999999999</ele><time>2026-04-24T16:34:37.087Z</time></trkpt><trkpt lat="46.5640851" lon="12.5427203"><ele>946.0</ele><time>2026-04-24T16:34:40.07Z</time></trkpt><trkpt lat="46.5641523" lon="12.5426448"><ele>946.0</ele><time>2026-04-24T16:34:43.09Z</time></trkpt><trkpt lat="46.5642323" lon="12.5425724"><ele>946.0</ele><time>2026-04-24T16:34:48.059Z</time></trkpt><trkpt lat="46.564331" lon="12.5424959"><ele>945.9999999999999</ele><time>2026-04-24T16:34:50.091Z</time></trkpt><trkpt lat="46.5643951" lon="12.5424538"><ele>946.0</ele><time>2026-04-24T16:34:53.061Z</time></trkpt><trkpt lat="46.564462" lon="12.5423719"><ele>945.9999999999999</ele><time>2026-04-24T16:34:56.062Z</time></trkpt><trkpt lat="46.5645132" lon="12.5423013"><ele>946.0</ele><time>2026-04-24T16:34:58.056Z</time></trkpt><trkpt lat="46.5645643" lon="12.5422344"><ele>946.0</ele><time>2026-04-24T16:35:00.064Z</time></trkpt><trkpt lat="46.5646061" lon="12.5421121"><ele>946.0</ele><time>2026-04-24T16:35:03.076Z</time></trkpt><trkpt lat="46.5646388" lon="12.5419913"><ele>945.9999999999999</ele><time>2026-04-24T16:35:06.067Z</time></trkpt><trkpt lat="46.5646746" lon="12.5419128"><ele>946.0</ele><time>2026-04-24T16:35:09.061Z</time></trkpt><trkpt lat="46.5647077" lon="12.5418344"><ele>946.4999999999999</ele><time>2026-04-24T16:35:12.09Z</time></trkpt><trkpt lat="46.564767" lon="12.5417721"><ele>947.0</ele><time>2026-04-24T16:35:15.055Z</time></trkpt><trkpt lat="46.5648197" lon="12.5416994"><ele>947.5</ele><time>2026-04-24T16:35:18.058Z</time></trkpt><trkpt lat="46.5648848" lon="12.5416235"><ele>948.0</ele><time>2026-04-24T16:35:21.064Z</time></trkpt><trkpt lat="46.564939" lon="12.5415553"><ele>948.4999999999999</ele><time>2026-04-24T16:35:24.088Z</time></trkpt><trkpt lat="46.5649922" lon="12.5414997"><ele>949.0</ele><time>2026-04-24T16:35:26.064Z</time></trkpt><trkpt lat="46.5650648" lon="12.5414373"><ele>949.0000000000001</ele><time>2026-04-24T16:35:29.058Z</time></trkpt><trkpt lat="46.56513" lon="12.5414"><ele>949.0</ele><time>2026-04-24T16:35:32.087Z</time></trkpt><trkpt lat="46.5651899" lon="12.5413554"><ele>949.0000000000001</ele><time>2026-04-24T16:35:35.094Z</time></trkpt><trkpt lat="46.5652384" lon="12.5412883"><ele>949.0000000000001</ele><time>2026-04-24T16:35:38.087Z</time></trkpt><trkpt lat="46.5653012" lon="12.5412066"><ele>949.0</ele><time>2026-04-24T16:35:42.066Z</time></trkpt><trkpt lat="46.5653637" lon="12.5411534"><ele>949.0000000000001</ele><time>2026-04-24T16:35:44.059Z</time></trkpt><trkpt lat="46.5654133" lon="12.5410714"><ele>949.0000000000001</ele><time>2026-04-24T16:35:47.065Z</time></trkpt><trkpt lat="46.5654663" lon="12.5409998"><ele>948.8333333333333</ele><time>2026-04-24T16:35:50.067Z</time></trkpt><trkpt lat="46.5655446" lon="12.5409514"><ele>948.6666666666666</ele><time>2026-04-24T16:35:53.059Z</time></trkpt><trkpt lat="46.5656209" lon="12.5409168"><ele>948.5</ele><time>2026-04-24T16:35:56.056Z</time></trkpt><trkpt lat="46.5656957" lon="12.5408926"><ele>948.3333333333333</ele><time>2026-04-24T16:35:59.056Z</time></trkpt><trkpt lat="46.5657711" lon="12.5408523"><ele>948.1666666666666</ele><time>2026-04-24T16:36:02.045Z</time></trkpt><trkpt lat="46.5658477" lon="12.5408229"><ele>948.0</ele><time>2026-04-24T16:36:05.057Z</time></trkpt><trkpt lat="46.5659215" lon="12.5407202"><ele>947.9999999999999</ele><time>2026-04-24T16:36:08.056Z</time></trkpt><trkpt lat="46.5659807" lon="12.540672"><ele>948.0</ele><time>2026-04-24T16:36:10.042Z</time></trkpt><trkpt lat="46.5660362" lon="12.5406284"><ele>947.9999999999999</ele><time>2026-04-24T16:36:11.98Z</time></trkpt><trkpt lat="46.5660889" lon="12.540569"><ele>947.9999999999999</ele><time>2026-04-24T16:36:14.055Z</time></trkpt><trkpt lat="46.5661529" lon="12.5404847"><ele>948.0</ele><time>2026-04-24T16:36:17.06Z</time></trkpt><trkpt lat="46.5662127" lon="12.5403942"><ele>947.9999999999999</ele><time>2026-04-24T16:36:20.056Z</time></trkpt><trkpt lat="46.5662471" lon="12.5403084"><ele>947.9999999999999</ele><time>2026-04-24T16:36:23.022Z</time></trkpt><trkpt lat="46.5662901" lon="12.5402085"><ele>947.8333333333334</ele><time>2026-04-24T16:36:27.083Z</time></trkpt><trkpt lat="46.5663351" lon="12.5401287"><ele>947.6666666666667</ele><time>2026-04-24T16:36:31.081Z</time></trkpt><trkpt lat="46.5663701" lon="12.5400369"><ele>947.5</ele><time>2026-04-24T16:36:36.061Z</time></trkpt><trkpt lat="46.5664336" lon="12.539956"><ele>947.3333333333334</ele><time>2026-04-24T16:36:39.056Z</time></trkpt><trkpt lat="46.5664929" lon="12.5398774"><ele>947.1666666666667</ele><time>2026-04-24T16:36:42.055Z</time></trkpt><trkpt lat="46.5665515" lon="12.5398018"><ele>947.0</ele><time>2026-04-24T16:36:45.056Z</time></trkpt><trkpt lat="46.5666041" lon="12.5397253"><ele>947.0000000000001</ele><time>2026-04-24T16:36:48.004Z</time></trkpt><trkpt lat="46.566667" lon="12.5396396"><ele>947.0</ele><time>2026-04-24T16:36:51.056Z</time></trkpt><trkpt lat="46.5667269" lon="12.5395795"><ele>947.0</ele><time>2026-04-24T16:36:54.056Z</time></trkpt><trkpt lat="46.5668001" lon="12.5394848"><ele>947.0</ele><time>2026-04-24T16:36:57.056Z</time></trkpt><trkpt lat="46.5668699" lon="12.5393778"><ele>947.0000000000001</ele><time>2026-04-24T16:36:59.056Z</time></trkpt><trkpt lat="46.5669241" lon="12.539293"><ele>947.0</ele><time>2026-04-24T16:37:01.043Z</time></trkpt><trkpt lat="46.5669898" lon="12.5392471"><ele>947.0000000000001</ele><time>2026-04-24T16:37:02.985Z</time></trkpt><trkpt lat="46.56705" lon="12.5392073"><ele>947.0</ele><time>2026-04-24T16:37:05.055Z</time></trkpt><trkpt lat="46.5671153" lon="12.5391432"><ele>947.0</ele><time>2026-04-24T16:37:08.064Z</time></trkpt><trkpt lat="46.5671747" lon="12.5390764"><ele>947.0</ele><time>2026-04-24T16:37:11.064Z</time></trkpt><trkpt lat="46.5672326" lon="12.5390076"><ele>947.0000000000001</ele><time>2026-04-24T16:37:14.06Z</time></trkpt><trkpt lat="46.5673043" lon="12.538928"><ele>947.0</ele><time>2026-04-24T16:37:17.057Z</time></trkpt><trkpt lat="46.567364" lon="12.5388476"><ele>947.0</ele><time>2026-04-24T16:37:20.089Z</time></trkpt><trkpt lat="46.5674102" lon="12.5387633"><ele>946.9999999999999</ele><time>2026-04-24T16:37:23.057Z</time></trkpt><trkpt lat="46.5674559" lon="12.5386804"><ele>947.0</ele><time>2026-04-24T16:37:25.064Z</time></trkpt><trkpt lat="46.5674971" lon="12.5385845"><ele>947.0</ele><time>2026-04-24T16:37:27.086Z</time></trkpt><trkpt lat="46.5675376" lon="12.5384904"><ele>946.9999999999999</ele><time>2026-04-24T16:37:29.068Z</time></trkpt><trkpt lat="46.5675837" lon="12.5384019"><ele>947.0</ele><time>2026-04-24T16:37:31.068Z</time></trkpt><trkpt lat="46.5676157" lon="12.5383157"><ele>947.0</ele><time>2026-04-24T16:37:33.008Z</time></trkpt><trkpt lat="46.5676504" lon="12.5382301"><ele>945.8333333333334</ele><time>2026-04-24T16:37:35.061Z</time></trkpt><trkpt lat="46.5676831" lon="12.538111"><ele>944.6666666666667</ele><time>2026-04-24T16:37:38.063Z</time></trkpt><trkpt lat="46.5677246" lon="12.5380046"><ele>943.5</ele><time>2026-04-24T16:37:41.077Z</time></trkpt><trkpt lat="46.5677571" lon="12.5379246"><ele>942.3333333333333</ele><time>2026-04-24T16:37:43.056Z</time></trkpt><trkpt lat="46.5677945" lon="12.5378248"><ele>941.1666666666666</ele><time>2026-04-24T16:37:46.064Z</time></trkpt><trkpt lat="46.5678306" lon="12.5377273"><ele>940.0</ele><time>2026-04-24T16:37:49.083Z</time></trkpt><trkpt lat="46.5678745" lon="12.5376577"><ele>939.9999999999999</ele><time>2026-04-24T16:37:51.056Z</time></trkpt><trkpt lat="46.5679368" lon="12.5375834"><ele>940.0</ele><time>2026-04-24T16:37:54.058Z</time></trkpt><trkpt lat="46.568005" lon="12.5374988"><ele>940.0</ele><time>2026-04-24T16:37:57.059Z</time></trkpt><trkpt lat="46.5680542" lon="12.5373985"><ele>940.0</ele><time>2026-04-24T16:38:00.062Z</time></trkpt><trkpt lat="46.5681041" lon="12.5372905"><ele>939.9999999999999</ele><time>2026-04-24T16:38:03.073Z</time></trkpt><trkpt lat="46.5681578" lon="12.5371868"><ele>940.0</ele><time>2026-04-24T16:38:06.088Z</time></trkpt><trkpt lat="46.5682132" lon="12.5370924"><ele>943.9999999999999</ele><time>2026-04-24T16:38:09.06Z</time></trkpt><trkpt lat="46.5682601" lon="12.5369853"><ele>948.0</ele><time>2026-04-24T16:38:12.09Z</time></trkpt><trkpt lat="46.5683154" lon="12.5368867"><ele>952.0</ele><time>2026-04-24T16:38:15.089Z</time></trkpt><trkpt lat="46.5683768" lon="12.5367873"><ele>956.0</ele><time>2026-04-24T16:38:18.06Z</time></trkpt><trkpt lat="46.5684288" lon="12.5367007"><ele>959.9999999999999</ele><time>2026-04-24T16:38:21.088Z</time></trkpt><trkpt lat="46.5684825" lon="12.5366262"><ele>964.0</ele><time>2026-04-24T16:38:24.063Z</time></trkpt><trkpt lat="46.5685454" lon="12.5366042"><ele>963.9999999999999</ele><time>2026-04-24T16:38:26.092Z</time></trkpt><trkpt lat="46.5686049" lon="12.5365508"><ele>964.0</ele><time>2026-04-24T16:38:29.06Z</time></trkpt><trkpt lat="46.5686683" lon="12.5365293"><ele>964.0</ele><time>2026-04-24T16:38:31.057Z</time></trkpt><trkpt lat="46.5687479" lon="12.5364953"><ele>964.0</ele><time>2026-04-24T16:38:34.068Z</time></trkpt><trkpt lat="46.5688291" lon="12.5364841"><ele>963.9999999999999</ele><time>2026-04-24T16:38:37.055Z</time></trkpt><trkpt lat="46.5689099" lon="12.536459"><ele>964.0</ele><time>2026-04-24T16:38:40.055Z</time></trkpt><trkpt lat="46.5689875" lon="12.5364346"><ele>964.7142857142858</ele><time>2026-04-24T16:38:43.053Z</time></trkpt><trkpt lat="46.5690509" lon="12.5363982"><ele>965.4285714285716</ele><time>2026-04-24T16:38:46.057Z</time></trkpt><trkpt lat="46.569119" lon="12.5363578"><ele>966.1428571428571</ele><time>2026-04-24T16:38:49.098Z</time></trkpt><trkpt lat="46.5691788" lon="12.5363196"><ele>966.8571428571429</ele><time>2026-04-24T16:38:52.056Z</time></trkpt><trkpt lat="46.5692344" lon="12.5362742"><ele>967.5714285714286</ele><time>2026-04-24T16:38:55.023Z</time></trkpt><trkpt lat="46.5692984" lon="12.5362181"><ele>968.2857142857142</ele><time>2026-04-24T16:38:59.057Z</time></trkpt><trkpt lat="46.5693443" lon="12.5361531"><ele>968.9999999999999</ele><time>2026-04-24T16:39:03.056Z</time></trkpt><trkpt lat="46.5693921" lon="12.5360676"><ele>968.9999999999999</ele><time>2026-04-24T16:39:07.079Z</time></trkpt><trkpt lat="46.5694363" lon="12.5359782"><ele>969.0</ele><time>2026-04-24T16:39:10.966Z</time></trkpt><trkpt lat="46.5694658" lon="12.5358963"><ele>968.9999999999999</ele><time>2026-04-24T16:39:14.056Z</time></trkpt><trkpt lat="46.5694902" lon="12.5358051"><ele>968.9999999999999</ele><time>2026-04-24T16:39:17.044Z</time></trkpt><trkpt lat="46.5695172" lon="12.5357149"><ele>969.0</ele><time>2026-04-24T16:39:20.056Z</time></trkpt><trkpt lat="46.5695533" lon="12.5356279"><ele>968.9999999999999</ele><time>2026-04-24T16:39:23.078Z</time></trkpt><trkpt lat="46.5696039" lon="12.5355574"><ele>968.9999999999999</ele><time>2026-04-24T16:39:26.058Z</time></trkpt><trkpt lat="46.5696533" lon="12.5354826"><ele>969.0</ele><time>2026-04-24T16:39:29.088Z</time></trkpt><trkpt lat="46.569697" lon="12.5353738"><ele>969.0</ele><time>2026-04-24T16:39:32.082Z</time></trkpt><trkpt lat="46.5697327" lon="12.5352695"><ele>969.0</ele><time>2026-04-24T16:39:34.052Z</time></trkpt><trkpt lat="46.5697689" lon="12.5351922"><ele>969.0</ele><time>2026-04-24T16:39:36.057Z</time></trkpt><trkpt lat="46.5698329" lon="12.5351184"><ele>969.0</ele><time>2026-04-24T16:39:39.081Z</time></trkpt><trkpt lat="46.5699237" lon="12.5350728"><ele>969.0</ele><time>2026-04-24T16:39:42.059Z</time></trkpt><trkpt lat="46.5699913" lon="12.5350428"><ele>969.0</ele><time>2026-04-24T16:39:44.062Z</time></trkpt><trkpt lat="46.5700618" lon="12.5349884"><ele>969.0</ele><time>2026-04-24T16:39:47.058Z</time></trkpt><trkpt lat="46.570127" lon="12.534892"><ele>969.0</ele><time>2026-04-24T16:39:50.078Z</time></trkpt><trkpt lat="46.5701895" lon="12.5348211"><ele>969.0</ele><time>2026-04-24T16:39:53.054Z</time></trkpt><trkpt lat="46.57024" lon="12.5347426"><ele>969.0</ele><time>2026-04-24T16:39:56.039Z</time></trkpt><trkpt lat="46.5702776" lon="12.5346504"><ele>969.0</ele><time>2026-04-24T16:39:59.058Z</time></trkpt><trkpt lat="46.5703155" lon="12.5345747"><ele>971.6666666666666</ele><time>2026-04-24T16:40:02.081Z</time></trkpt><trkpt lat="46.5703649" lon="12.5344868"><ele>974.3333333333333</ele><time>2026-04-24T16:40:06.058Z</time></trkpt><trkpt lat="46.5704246" lon="12.5344325"><ele>977.0</ele><time>2026-04-24T16:40:09.099Z</time></trkpt><trkpt lat="46.5704989" lon="12.5343795"><ele>979.6666666666666</ele><time>2026-04-24T16:40:12.052Z</time></trkpt><trkpt lat="46.5705598" lon="12.534334"><ele>982.3333333333333</ele><time>2026-04-24T16:40:16.051Z</time></trkpt><trkpt lat="46.5706433" lon="12.5342581"><ele>985.0</ele><time>2026-04-24T16:40:21.078Z</time></trkpt><trkpt lat="46.5707081" lon="12.5341898"><ele>984.9999999999999</ele><time>2026-04-24T16:40:24.055Z</time></trkpt><trkpt lat="46.5707801" lon="12.5341388"><ele>985.0</ele><time>2026-04-24T16:40:27.055Z</time></trkpt><trkpt lat="46.5708375" lon="12.5341004"><ele>985.0</ele><time>2026-04-24T16:40:29.055Z</time></trkpt><trkpt lat="46.5709263" lon="12.5340628"><ele>985.0</ele><time>2026-04-24T16:40:32.094Z</time></trkpt><trkpt lat="46.570993" lon="12.5340327"><ele>984.9999999999999</ele><time>2026-04-24T16:40:34.151Z</time></trkpt><trkpt lat="46.57107" lon="12.5340145"><ele>985.0</ele><time>2026-04-24T16:40:36.083Z</time></trkpt><trkpt lat="46.571143" lon="12.5339929"><ele>982.3333333333333</ele><time>2026-04-24T16:40:37.981Z</time></trkpt><trkpt lat="46.5712339" lon="12.5339619"><ele>979.6666666666666</ele><time>2026-04-24T16:40:40.051Z</time></trkpt><trkpt lat="46.5713115" lon="12.5339268"><ele>977.0</ele><time>2026-04-24T16:40:42.053Z</time></trkpt><trkpt lat="46.571383" lon="12.5338919"><ele>974.3333333333333</ele><time>2026-04-24T16:40:44.059Z</time></trkpt><trkpt lat="46.5714524" lon="12.5338704"><ele>971.6666666666666</ele><time>2026-04-24T16:40:46.077Z</time></trkpt><trkpt lat="46.5715293" lon="12.5338282"><ele>969.0</ele><time>2026-04-24T16:40:48.085Z</time></trkpt><trkpt lat="46.5716016" lon="12.5338"><ele>968.9999999999999</ele><time>2026-04-24T16:40:50.053Z</time></trkpt><trkpt lat="46.5716646" lon="12.5338128"><ele>969.0</ele><time>2026-04-24T16:40:52.057Z</time></trkpt><trkpt lat="46.5717387" lon="12.5337763"><ele>968.9999999999999</ele><time>2026-04-24T16:40:54.078Z</time></trkpt><trkpt lat="46.5718098" lon="12.533741"><ele>968.9999999999999</ele><time>2026-04-24T16:40:56.088Z</time></trkpt><trkpt lat="46.571873" lon="12.5337002"><ele>969.0</ele><time>2026-04-24T16:40:58.067Z</time></trkpt><trkpt lat="46.5719358" lon="12.5336793"><ele>968.9999999999999</ele><time>2026-04-24T16:41:00.052Z</time></trkpt><trkpt lat="46.5720007" lon="12.5336713"><ele>968.9999999999999</ele><time>2026-04-24T16:41:02.056Z</time></trkpt><trkpt lat="46.5720801" lon="12.5336911"><ele>967.8333333333334</ele><time>2026-04-24T16:41:04.056Z</time></trkpt><trkpt lat="46.5721501" lon="12.5337155"><ele>966.6666666666667</ele><time>2026-04-24T16:41:06.015Z</time></trkpt><trkpt lat="46.5722279" lon="12.533747"><ele>965.5</ele><time>2026-04-24T16:41:08.056Z</time></trkpt><trkpt lat="46.5722936" lon="12.5337826"><ele>964.3333333333334</ele><time>2026-04-24T16:41:10.056Z</time></trkpt><trkpt lat="46.5723746" lon="12.5338406"><ele>963.1666666666667</ele><time>2026-04-24T16:41:13.058Z</time></trkpt><trkpt lat="46.572449" lon="12.5338966"><ele>962.0</ele><time>2026-04-24T16:41:16.057Z</time></trkpt><trkpt lat="46.5725325" lon="12.5339283"><ele>961.9999999999999</ele><time>2026-04-24T16:41:19.055Z</time></trkpt><trkpt lat="46.5726102" lon="12.5339288"><ele>962.0</ele><time>2026-04-24T16:41:21.985Z</time></trkpt><trkpt lat="46.5726807" lon="12.5339117"><ele>961.9999999999999</ele><time>2026-04-24T16:41:25.048Z</time></trkpt><trkpt lat="46.5727426" lon="12.533888"><ele>961.9999999999999</ele><time>2026-04-24T16:41:28.055Z</time></trkpt><trkpt lat="46.5728049" lon="12.5338736"><ele>962.0</ele><time>2026-04-24T16:41:31.056Z</time></trkpt><trkpt lat="46.5728742" lon="12.5338536"><ele>961.9999999999999</ele><time>2026-04-24T16:41:34.055Z</time></trkpt><trkpt lat="46.5729389" lon="12.5338392"><ele>961.9999999999999</ele><time>2026-04-24T16:41:37.052Z</time></trkpt><trkpt lat="46.5730087" lon="12.5338199"><ele>962.0000000000001</ele><time>2026-04-24T16:41:41.054Z</time></trkpt><trkpt lat="46.5730786" lon="12.5337667"><ele>962.0</ele><time>2026-04-24T16:41:46.059Z</time></trkpt><trkpt lat="46.5731636" lon="12.5336878"><ele>962.0</ele><time>2026-04-24T16:41:49.064Z</time></trkpt><trkpt lat="46.5732375" lon="12.5336068"><ele>962.0</ele><time>2026-04-24T16:41:52.053Z</time></trkpt><trkpt lat="46.5732812" lon="12.5334713"><ele>962.0000000000001</ele><time>2026-04-24T16:41:55.056Z</time></trkpt><trkpt lat="46.573324" lon="12.5334019"><ele>962.0</ele><time>2026-04-24T16:41:57.049Z</time></trkpt><trkpt lat="46.5733754" lon="12.5333296"><ele>961.3333333333334</ele><time>2026-04-24T16:41:58.966Z</time></trkpt><trkpt lat="46.5734279" lon="12.5332429"><ele>960.6666666666667</ele><time>2026-04-24T16:42:01.055Z</time></trkpt><trkpt lat="46.5734821" lon="12.5331873"><ele>960.0</ele><time>2026-04-24T16:42:03.056Z</time></trkpt><trkpt lat="46.5735544" lon="12.5331091"><ele>959.3333333333333</ele><time>2026-04-24T16:42:06.057Z</time></trkpt><trkpt lat="46.5736047" lon="12.5330067"><ele>958.6666666666666</ele><time>2026-04-24T16:42:09.056Z</time></trkpt><trkpt lat="46.573663" lon="12.5329232"><ele>958.0</ele><time>2026-04-24T16:42:12.047Z</time></trkpt><trkpt lat="46.5737214" lon="12.5328505"><ele>957.9999999999999</ele><time>2026-04-24T16:42:14.711Z</time></trkpt><trkpt lat="46.5737695" lon="12.532786"><ele>958.0</ele><time>2026-04-24T16:42:17.029Z</time></trkpt><trkpt lat="46.5738287" lon="12.5327042"><ele>958.0</ele><time>2026-04-24T16:42:20.102Z</time></trkpt><trkpt lat="46.5738856" lon="12.5326303"><ele>958.0</ele><time>2026-04-24T16:42:23.059Z</time></trkpt><trkpt lat="46.573955" lon="12.5325584"><ele>957.9999999999999</ele><time>2026-04-24T16:42:26.059Z</time></trkpt><trkpt lat="46.5740296" lon="12.5324917"><ele>958.0</ele><time>2026-04-24T16:42:29.059Z</time></trkpt><trkpt lat="46.574101" lon="12.532418"><ele>957.9999999999999</ele><time>2026-04-24T16:42:32.072Z</time></trkpt><trkpt lat="46.5741657" lon="12.5323467"><ele>958.0</ele><time>2026-04-24T16:42:35.087Z</time></trkpt><trkpt lat="46.5742249" lon="12.5322664"><ele>958.0</ele><time>2026-04-24T16:42:38.051Z</time></trkpt><trkpt lat="46.5742855" lon="12.532194"><ele>958.0</ele><time>2026-04-24T16:42:41.056Z</time></trkpt><trkpt lat="46.5743492" lon="12.5321136"><ele>957.9999999999999</ele><time>2026-04-24T16:42:44.084Z</time></trkpt><trkpt lat="46.5744148" lon="12.5320514"><ele>958.0</ele><time>2026-04-24T16:42:47.083Z</time></trkpt><trkpt lat="46.5744709" lon="12.5319658"><ele>958.8333333333333</ele><time>2026-04-24T16:42:50.057Z</time></trkpt><trkpt lat="46.5745167" lon="12.5318746"><ele>959.6666666666666</ele><time>2026-04-24T16:42:53.029Z</time></trkpt><trkpt lat="46.5745658" lon="12.5317683"><ele>960.5</ele><time>2026-04-24T16:42:56.093Z</time></trkpt><trkpt lat="46.5746135" lon="12.5316722"><ele>961.3333333333333</ele><time>2026-04-24T16:42:59.085Z</time></trkpt><trkpt lat="46.5746633" lon="12.5315805"><ele>962.1666666666666</ele><time>2026-04-24T16:43:02.051Z</time></trkpt><trkpt lat="46.5747128" lon="12.5314836"><ele>963.0</ele><time>2026-04-24T16:43:05.053Z</time></trkpt><trkpt lat="46.5747638" lon="12.5313947"><ele>963.0000000000001</ele><time>2026-04-24T16:43:08.057Z</time></trkpt><trkpt lat="46.5748082" lon="12.5313146"><ele>963.0</ele><time>2026-04-24T16:43:11.095Z</time></trkpt><trkpt lat="46.5748524" lon="12.5312418"><ele>963.0000000000001</ele><time>2026-04-24T16:43:14.078Z</time></trkpt><trkpt lat="46.5749089" lon="12.5311838"><ele>963.0000000000001</ele><time>2026-04-24T16:43:17.065Z</time></trkpt><trkpt lat="46.5749775" lon="12.5311255"><ele>963.0</ele><time>2026-04-24T16:43:20.058Z</time></trkpt><trkpt lat="46.5750485" lon="12.5310819"><ele>963.0000000000001</ele><time>2026-04-24T16:43:23.054Z</time></trkpt><trkpt lat="46.5751306" lon="12.5310518"><ele>963.0000000000001</ele><time>2026-04-24T16:43:26.055Z</time></trkpt><trkpt lat="46.5752117" lon="12.5309946"><ele>963.857142857143</ele><time>2026-04-24T16:43:29.054Z</time></trkpt><trkpt lat="46.5752631" lon="12.5309403"><ele>964.7142857142858</ele><time>2026-04-24T16:43:31.052Z</time></trkpt><trkpt lat="46.575323" lon="12.5309003"><ele>965.5714285714286</ele><time>2026-04-24T16:43:33.058Z</time></trkpt><trkpt lat="46.5753769" lon="12.5308442"><ele>966.4285714285714</ele><time>2026-04-24T16:43:35.062Z</time></trkpt><trkpt lat="46.5754301" lon="12.5307951"><ele>967.2857142857142</ele><time>2026-04-24T16:43:37.057Z</time></trkpt><trkpt lat="46.5755033" lon="12.5307328"><ele>968.142857142857</ele><time>2026-04-24T16:43:40.09Z</time></trkpt><trkpt lat="46.5755602" lon="12.5306641"><ele>968.9999999999999</ele><time>2026-04-24T16:43:43.056Z</time></trkpt><trkpt lat="46.5756183" lon="12.5305991"><ele>969.0</ele><time>2026-04-24T16:43:46.056Z</time></trkpt><trkpt lat="46.5756799" lon="12.5305"><ele>969.0</ele><time>2026-04-24T16:43:50.053Z</time></trkpt><trkpt lat="46.5757341" lon="12.53044"><ele>969.0</ele><time>2026-04-24T16:43:53.052Z</time></trkpt><trkpt lat="46.5757944" lon="12.5303817"><ele>969.0</ele><time>2026-04-24T16:43:57.021Z</time></trkpt><trkpt lat="46.5758668" lon="12.5303457"><ele>969.0</ele><time>2026-04-24T16:44:02.057Z</time></trkpt><trkpt lat="46.5759254" lon="12.5302711"><ele>969.0</ele><time>2026-04-24T16:44:06.006Z</time></trkpt><trkpt lat="46.5759951" lon="12.5302002"><ele>970.5714285714284</ele><time>2026-04-24T16:44:09.057Z</time></trkpt><trkpt lat="46.5760743" lon="12.530158"><ele>972.1428571428571</ele><time>2026-04-24T16:44:12.055Z</time></trkpt><trkpt lat="46.5761397" lon="12.5301367"><ele>973.7142857142857</ele><time>2026-04-24T16:44:14.06Z</time></trkpt><trkpt lat="46.5762026" lon="12.5301036"><ele>975.2857142857142</ele><time>2026-04-24T16:44:16.061Z</time></trkpt><trkpt lat="46.576261" lon="12.5300411"><ele>976.8571428571429</ele><time>2026-04-24T16:44:18.055Z</time></trkpt><trkpt lat="46.5763228" lon="12.5299861"><ele>978.4285714285714</ele><time>2026-04-24T16:44:20.082Z</time></trkpt><trkpt lat="46.5763796" lon="12.5299289"><ele>980.0</ele><time>2026-04-24T16:44:22.07Z</time></trkpt><trkpt lat="46.5764363" lon="12.529886"><ele>980.0000000000001</ele><time>2026-04-24T16:44:24.057Z</time></trkpt><trkpt lat="46.576522" lon="12.5298282"><ele>980.0</ele><time>2026-04-24T16:44:27.075Z</time></trkpt><trkpt lat="46.5765793" lon="12.5297685"><ele>980.0</ele><time>2026-04-24T16:44:30.05Z</time></trkpt><trkpt lat="46.5766417" lon="12.5297273"><ele>980.0</ele><time>2026-04-24T16:44:33.052Z</time></trkpt><trkpt lat="46.5767089" lon="12.5296743"><ele>980.0000000000001</ele><time>2026-04-24T16:44:36.048Z</time></trkpt><trkpt lat="46.5767713" lon="12.5296054"><ele>980.0</ele><time>2026-04-24T16:44:39.087Z</time></trkpt><trkpt lat="46.5768416" lon="12.529528"><ele>979.6666666666667</ele><time>2026-04-24T16:44:42.059Z</time></trkpt><trkpt lat="46.5769022" lon="12.5294579"><ele>979.3333333333334</ele><time>2026-04-24T16:44:45.059Z</time></trkpt><trkpt lat="46.5769525" lon="12.5293705"><ele>979.0</ele><time>2026-04-24T16:44:48.058Z</time></trkpt><trkpt lat="46.5769997" lon="12.5292743"><ele>978.6666666666667</ele><time>2026-04-24T16:44:51.056Z</time></trkpt><trkpt lat="46.5770342" lon="12.5291726"><ele>978.3333333333334</ele><time>2026-04-24T16:44:54.06Z</time></trkpt><trkpt lat="46.5770573" lon="12.529065"><ele>978.0</ele><time>2026-04-24T16:44:57.058Z</time></trkpt><trkpt lat="46.5770825" lon="12.5289786"><ele>978.0</ele><time>2026-04-24T16:45:00.057Z</time></trkpt><trkpt lat="46.5771205" lon="12.5288914"><ele>978.0000000000001</ele><time>2026-04-24T16:45:03.061Z</time></trkpt><trkpt lat="46.577164" lon="12.5288183"><ele>978.0</ele><time>2026-04-24T16:45:05.157Z</time></trkpt><trkpt lat="46.5772121" lon="12.5287377"><ele>978.0</ele><time>2026-04-24T16:45:07.057Z</time></trkpt><trkpt lat="46.577249" lon="12.5286589"><ele>978.0000000000001</ele><time>2026-04-24T16:45:09.062Z</time></trkpt><trkpt lat="46.5772995" lon="12.5285869"><ele>978.0</ele><time>2026-04-24T16:45:11.086Z</time></trkpt><trkpt lat="46.5773523" lon="12.5285327"><ele>978.0</ele><time>2026-04-24T16:45:12.986Z</time></trkpt><trkpt lat="46.5774166" lon="12.5284664"><ele>980.1428571428572</ele><time>2026-04-24T16:45:15.058Z</time></trkpt><trkpt lat="46.5774657" lon="12.5283888"><ele>982.2857142857144</ele><time>2026-04-24T16:45:17.058Z</time></trkpt><trkpt lat="46.5775163" lon="12.5283251"><ele>984.4285714285714</ele><time>2026-04-24T16:45:19.031Z</time></trkpt><trkpt lat="46.5775744" lon="12.5282742"><ele>986.5714285714287</ele><time>2026-04-24T16:45:21.054Z</time></trkpt><trkpt lat="46.5776302" lon="12.5282272"><ele>988.7142857142858</ele><time>2026-04-24T16:45:23.056Z</time></trkpt><trkpt lat="46.5776894" lon="12.5281817"><ele>990.8571428571429</ele><time>2026-04-24T16:45:25.051Z</time></trkpt><trkpt lat="46.5777613" lon="12.5281087"><ele>993.0</ele><time>2026-04-24T16:45:28.08Z</time></trkpt><trkpt lat="46.5778191" lon="12.5280304"><ele>991.1428571428571</ele><time>2026-04-24T16:45:31.05Z</time></trkpt><trkpt lat="46.5778818" lon="12.5279812"><ele>989.2857142857143</ele><time>2026-04-24T16:45:34.053Z</time></trkpt><trkpt lat="46.5779298" lon="12.527867"><ele>987.4285714285714</ele><time>2026-04-24T16:45:37.063Z</time></trkpt><trkpt lat="46.5779578" lon="12.5277783"><ele>985.5714285714286</ele><time>2026-04-24T16:45:39.087Z</time></trkpt><trkpt lat="46.577964" lon="12.5276864"><ele>983.7142857142858</ele><time>2026-04-24T16:45:41.056Z</time></trkpt><trkpt lat="46.5779706" lon="12.5275936"><ele>981.8571428571429</ele><time>2026-04-24T16:45:43.054Z</time></trkpt><trkpt lat="46.5780013" lon="12.5274711"><ele>980.0</ele><time>2026-04-24T16:45:45.981Z</time></trkpt><trkpt lat="46.5780476" lon="12.5273566"><ele>980.0000000000001</ele><time>2026-04-24T16:45:49.073Z</time></trkpt><trkpt lat="46.5780809" lon="12.5272782"><ele>980.0</ele><time>2026-04-24T16:45:51.056Z</time></trkpt><trkpt lat="46.5781349" lon="12.527177"><ele>980.0</ele><time>2026-04-24T16:45:54.056Z</time></trkpt><trkpt lat="46.578195" lon="12.5270974"><ele>980.0</ele><time>2026-04-24T16:45:57.056Z</time></trkpt><trkpt lat="46.578229" lon="12.5270016"><ele>980.0000000000001</ele><time>2026-04-24T16:46:00.056Z</time></trkpt><trkpt lat="46.5782574" lon="12.5268993"><ele>980.0</ele><time>2026-04-24T16:46:03.056Z</time></trkpt><trkpt lat="46.5782859" lon="12.5267938"><ele>983.3333333333334</ele><time>2026-04-24T16:46:06.056Z</time></trkpt><trkpt lat="46.5783268" lon="12.5266964"><ele>986.6666666666667</ele><time>2026-04-24T16:46:09.037Z</time></trkpt><trkpt lat="46.5783887" lon="12.5266056"><ele>990.0</ele><time>2026-04-24T16:46:12.056Z</time></trkpt><trkpt lat="46.5784426" lon="12.5265213"><ele>993.3333333333333</ele><time>2026-04-24T16:46:15.055Z</time></trkpt><trkpt lat="46.5784968" lon="12.5264369"><ele>996.6666666666666</ele><time>2026-04-24T16:46:17.993Z</time></trkpt><trkpt lat="46.5785389" lon="12.5263409"><ele>1000.0</ele><time>2026-04-24T16:46:20.96Z</time></trkpt><trkpt lat="46.5785974" lon="12.5262962"><ele>999.9999999999999</ele><time>2026-04-24T16:46:23.055Z</time></trkpt><trkpt lat="46.5786599" lon="12.5262574"><ele>1000.0</ele><time>2026-04-24T16:46:26.056Z</time></trkpt><trkpt lat="46.5786943" lon="12.5261664"><ele>1000.0</ele><time>2026-04-24T16:46:28.055Z</time></trkpt><trkpt lat="46.5787565" lon="12.5260888"><ele>1000.0</ele><time>2026-04-24T16:46:31.056Z</time></trkpt><trkpt lat="46.5788157" lon="12.5260058"><ele>999.9999999999999</ele><time>2026-04-24T16:46:33.986Z</time></trkpt><trkpt lat="46.5788779" lon="12.5259796"><ele>1000.0</ele><time>2026-04-24T16:46:36.056Z</time></trkpt><trkpt lat="46.5789608" lon="12.525928"><ele>998.3333333333333</ele><time>2026-04-24T16:46:39.056Z</time></trkpt><trkpt lat="46.5790383" lon="12.5258626"><ele>996.6666666666666</ele><time>2026-04-24T16:46:42.056Z</time></trkpt><trkpt lat="46.5791003" lon="12.5257658"><ele>995.0</ele><time>2026-04-24T16:46:45.085Z</time></trkpt><trkpt lat="46.5791584" lon="12.5256703"><ele>993.3333333333333</ele><time>2026-04-24T16:46:48.062Z</time></trkpt><trkpt lat="46.5792111" lon="12.5256015"><ele>991.6666666666666</ele><time>2026-04-24T16:46:50.666Z</time></trkpt><trkpt lat="46.5792546" lon="12.5255285"><ele>990.0</ele><time>2026-04-24T16:46:53.056Z</time></trkpt><trkpt lat="46.5793208" lon="12.5254411"><ele>990.3333333333334</ele><time>2026-04-24T16:46:56.056Z</time></trkpt><trkpt lat="46.5793784" lon="12.5253706"><ele>990.6666666666667</ele><time>2026-04-24T16:46:59.056Z</time></trkpt><trkpt lat="46.5794508" lon="12.5253198"><ele>991.0</ele><time>2026-04-24T16:47:02.056Z</time></trkpt><trkpt lat="46.5795155" lon="12.5252369"><ele>991.3333333333334</ele><time>2026-04-24T16:47:05.055Z</time></trkpt><trkpt lat="46.5795796" lon="12.5251596"><ele>991.6666666666667</ele><time>2026-04-24T16:47:08.055Z</time></trkpt><trkpt lat="46.5796381" lon="12.5250787"><ele>992.0</ele><time>2026-04-24T16:47:11.023Z</time></trkpt><trkpt lat="46.5797029" lon="12.5250172"><ele>992.0</ele><time>2026-04-24T16:47:14.01Z</time></trkpt><trkpt lat="46.579774" lon="12.5249727"><ele>992.0000000000001</ele><time>2026-04-24T16:47:17.026Z</time></trkpt><trkpt lat="46.5798372" lon="12.5249213"><ele>992.0</ele><time>2026-04-24T16:47:20.047Z</time></trkpt><trkpt lat="46.5799009" lon="12.5248591"><ele>992.0</ele><time>2026-04-24T16:47:23.056Z</time></trkpt><trkpt lat="46.5799531" lon="12.5248058"><ele>992.0000000000001</ele><time>2026-04-24T16:47:26.056Z</time></trkpt><trkpt lat="46.5799888" lon="12.5247289"><ele>992.0</ele><time>2026-04-24T16:47:29.056Z</time></trkpt><trkpt lat="46.5800438" lon="12.5246541"><ele>992.0</ele><time>2026-04-24T16:47:32.056Z</time></trkpt><trkpt lat="46.5801015" lon="12.5245755"><ele>992.6666666666667</ele><time>2026-04-24T16:47:35.056Z</time></trkpt><trkpt lat="46.5801504" lon="12.5244814"><ele>993.3333333333334</ele><time>2026-04-24T16:47:38.056Z</time></trkpt><trkpt lat="46.5801847" lon="12.5243773"><ele>994.0</ele><time>2026-04-24T16:47:41.056Z</time></trkpt><trkpt lat="46.58022" lon="12.5242785"><ele>994.6666666666667</ele><time>2026-04-24T16:47:44.066Z</time></trkpt><trkpt lat="46.5802668" lon="12.5241876"><ele>995.3333333333334</ele><time>2026-04-24T16:47:47.06Z</time></trkpt><trkpt lat="46.5803189" lon="12.5241061"><ele>996.0</ele><time>2026-04-24T16:47:50.065Z</time></trkpt><trkpt lat="46.5803598" lon="12.5240252"><ele>996.0</ele><time>2026-04-24T16:47:53.057Z</time></trkpt><trkpt lat="46.5803918" lon="12.5239343"><ele>996.0</ele><time>2026-04-24T16:47:56.057Z</time></trkpt><trkpt lat="46.5804113" lon="12.523836"><ele>996.0</ele><time>2026-04-24T16:47:59.056Z</time></trkpt><trkpt lat="46.5804444" lon="12.5237085"><ele>996.0</ele><time>2026-04-24T16:48:03.058Z</time></trkpt><trkpt lat="46.5804687" lon="12.5236051"><ele>996.0</ele><time>2026-04-24T16:48:06.07Z</time></trkpt><trkpt lat="46.5805155" lon="12.5235166"><ele>996.0</ele><time>2026-04-24T16:48:09.056Z</time></trkpt><trkpt lat="46.5805742" lon="12.5234341"><ele>997.4285714285713</ele><time>2026-04-24T16:48:13.059Z</time></trkpt><trkpt lat="46.5806189" lon="12.5233669"><ele>998.8571428571428</ele><time>2026-04-24T16:48:17.058Z</time></trkpt><trkpt lat="46.5806682" lon="12.5232657"><ele>1000.2857142857142</ele><time>2026-04-24T16:48:21.081Z</time></trkpt><trkpt lat="46.5807185" lon="12.5231849"><ele>1001.7142857142858</ele><time>2026-04-24T16:48:25.055Z</time></trkpt><trkpt lat="46.5807599" lon="12.5231028"><ele>1003.1428571428572</ele><time>2026-04-24T16:48:28.056Z</time></trkpt><trkpt lat="46.5807886" lon="12.5230083"><ele>1004.5714285714287</ele><time>2026-04-24T16:48:31.056Z</time></trkpt><trkpt lat="46.5807984" lon="12.5229089"><ele>1006.0</ele><time>2026-04-24T16:48:34.05Z</time></trkpt><trkpt lat="46.580786" lon="12.5227987"><ele>1008.1666666666666</ele><time>2026-04-24T16:48:37.08Z</time></trkpt><trkpt lat="46.5807591" lon="12.522699"><ele>1010.3333333333333</ele><time>2026-04-24T16:48:40.058Z</time></trkpt><trkpt lat="46.5807492" lon="12.5225903"><ele>1012.5</ele><time>2026-04-24T16:48:43.075Z</time></trkpt><trkpt lat="46.5807605" lon="12.5224695"><ele>1014.6666666666667</ele><time>2026-04-24T16:48:46.063Z</time></trkpt><trkpt lat="46.5807798" lon="12.5223577"><ele>1016.8333333333334</ele><time>2026-04-24T16:48:49.056Z</time></trkpt><trkpt lat="46.5808056" lon="12.5222422"><ele>1019.0</ele><time>2026-04-24T16:48:52.056Z</time></trkpt><trkpt lat="46.5808185" lon="12.5221288"><ele>1020.3333333333334</ele><time>2026-04-24T16:48:55.056Z</time></trkpt><trkpt lat="46.580825" lon="12.522009"><ele>1021.6666666666667</ele><time>2026-04-24T16:48:58.056Z</time></trkpt><trkpt lat="46.5808397" lon="12.5218839"><ele>1023.0</ele><time>2026-04-24T16:49:01.055Z</time></trkpt><trkpt lat="46.5808695" lon="12.5217655"><ele>1024.3333333333333</ele><time>2026-04-24T16:49:04.056Z</time></trkpt><trkpt lat="46.5809336" lon="12.5216729"><ele>1025.6666666666665</ele><time>2026-04-24T16:49:07.056Z</time></trkpt><trkpt lat="46.580995" lon="12.5215808"><ele>1027.0</ele><time>2026-04-24T16:49:10.057Z</time></trkpt><trkpt lat="46.5810439" lon="12.5214797"><ele>1027.0</ele><time>2026-04-24T16:49:13.056Z</time></trkpt><trkpt lat="46.5810866" lon="12.52137"><ele>1027.0</ele><time>2026-04-24T16:49:16.056Z</time></trkpt><trkpt lat="46.5811292" lon="12.5212576"><ele>1027.0</ele><time>2026-04-24T16:49:19.056Z</time></trkpt><trkpt lat="46.5811634" lon="12.5211439"><ele>1027.0</ele><time>2026-04-24T16:49:22.159Z</time></trkpt><trkpt lat="46.5811994" lon="12.5210388"><ele>1027.0</ele><time>2026-04-24T16:49:25.054Z</time></trkpt><trkpt lat="46.5812553" lon="12.520942"><ele>1027.0</ele><time>2026-04-24T16:49:28.06Z</time></trkpt><trkpt lat="46.5813075" lon="12.5208309"><ele>1027.4</ele><time>2026-04-24T16:49:31.056Z</time></trkpt><trkpt lat="46.5813488" lon="12.5207101"><ele>1027.8000000000002</ele><time>2026-04-24T16:49:34.062Z</time></trkpt><trkpt lat="46.5813949" lon="12.5205871"><ele>1028.2</ele><time>2026-04-24T16:49:37.06Z</time></trkpt><trkpt lat="46.5814411" lon="12.5204775"><ele>1028.6000000000001</ele><time>2026-04-24T16:49:40.063Z</time></trkpt><trkpt lat="46.5815027" lon="12.5203817"><ele>1029.0</ele><time>2026-04-24T16:49:43.053Z</time></trkpt><trkpt lat="46.5815661" lon="12.5202967"><ele>1029.0</ele><time>2026-04-24T16:49:46.001Z</time></trkpt><trkpt lat="46.5816295" lon="12.5202138"><ele>1029.0</ele><time>2026-04-24T16:49:49.057Z</time></trkpt><trkpt lat="46.5816961" lon="12.520133"><ele>1029.0</ele><time>2026-04-24T16:49:52.091Z</time></trkpt><trkpt lat="46.5817465" lon="12.5200304"><ele>1029.0</ele><time>2026-04-24T16:49:55.085Z</time></trkpt><trkpt lat="46.5817861" lon="12.5199215"><ele>1029.0</ele><time>2026-04-24T16:49:58.066Z</time></trkpt><trkpt lat="46.5818184" lon="12.5198045"><ele>1029.0</ele><time>2026-04-24T16:50:01.056Z</time></trkpt><trkpt lat="46.5818645" lon="12.5196936"><ele>1029.0</ele><time>2026-04-24T16:50:04.059Z</time></trkpt><trkpt lat="46.5819066" lon="12.5196243"><ele>1029.0</ele><time>2026-04-24T16:50:06.058Z</time></trkpt><trkpt lat="46.5819584" lon="12.5195335"><ele>1029.0</ele><time>2026-04-24T16:50:09.05Z</time></trkpt><trkpt lat="46.5820102" lon="12.5194283"><ele>1029.0</ele><time>2026-04-24T16:50:12.065Z</time></trkpt><trkpt lat="46.5820511" lon="12.5193544"><ele>1029.0</ele><time>2026-04-24T16:50:14.059Z</time></trkpt><trkpt lat="46.582099" lon="12.5192876"><ele>1029.0</ele><time>2026-04-24T16:50:16.058Z</time></trkpt><trkpt lat="46.5821512" lon="12.5192286"><ele>1029.0</ele><time>2026-04-24T16:50:18.063Z</time></trkpt><trkpt lat="46.5822046" lon="12.5191674"><ele>1026.0</ele><time>2026-04-24T16:50:20.064Z</time></trkpt><trkpt lat="46.5822533" lon="12.5191064"><ele>1023.0</ele><time>2026-04-24T16:50:22.09Z</time></trkpt><trkpt lat="46.5823194" lon="12.519026"><ele>1020.0</ele><time>2026-04-24T16:50:25.056Z</time></trkpt><trkpt lat="46.5823827" lon="12.518983"><ele>1017.0</ele><time>2026-04-24T16:50:27.073Z</time></trkpt><trkpt lat="46.5824461" lon="12.5189567"><ele>1014.0</ele><time>2026-04-24T16:50:29.083Z</time></trkpt><trkpt lat="46.5825072" lon="12.5189324"><ele>1011.0</ele><time>2026-04-24T16:50:31.09Z</time></trkpt><trkpt lat="46.5825732" lon="12.5189141"><ele>1008.0</ele><time>2026-04-24T16:50:33.086Z</time></trkpt><trkpt lat="46.5826355" lon="12.5188869"><ele>1008.0</ele><time>2026-04-24T16:50:35.063Z</time></trkpt><trkpt lat="46.5826954" lon="12.5188563"><ele>1008.0</ele><time>2026-04-24T16:50:37.085Z</time></trkpt><trkpt lat="46.5827779" lon="12.5188037"><ele>1008.0</ele><time>2026-04-24T16:50:40.068Z</time></trkpt><trkpt lat="46.5828521" lon="12.5187185"><ele>1008.0</ele><time>2026-04-24T16:50:43.085Z</time></trkpt><trkpt lat="46.5829047" lon="12.5186634"><ele>1008.0</ele><time>2026-04-24T16:50:45.053Z</time></trkpt><trkpt lat="46.5829564" lon="12.5185986"><ele>1008.0</ele><time>2026-04-24T16:50:47.054Z</time></trkpt><trkpt lat="46.5830013" lon="12.5185305"><ele>1008.0</ele><time>2026-04-24T16:50:49.049Z</time></trkpt><trkpt lat="46.5830691" lon="12.5184397"><ele>1007.1428571428571</ele><time>2026-04-24T16:50:52.027Z</time></trkpt><trkpt lat="46.5831145" lon="12.5183692"><ele>1006.2857142857142</ele><time>2026-04-24T16:50:54.065Z</time></trkpt><trkpt lat="46.5831574" lon="12.5182999"><ele>1005.4285714285714</ele><time>2026-04-24T16:50:56.06Z</time></trkpt><trkpt lat="46.5831979" lon="12.5182296"><ele>1004.5714285714286</ele><time>2026-04-24T16:50:58.043Z</time></trkpt><trkpt lat="46.5832411" lon="12.5181605"><ele>1003.7142857142857</ele><time>2026-04-24T16:51:00.057Z</time></trkpt><trkpt lat="46.5833068" lon="12.5180639"><ele>1002.8571428571429</ele><time>2026-04-24T16:51:03.065Z</time></trkpt><trkpt lat="46.5833589" lon="12.5180063"><ele>1002.0</ele><time>2026-04-24T16:51:05.06Z</time></trkpt><trkpt lat="46.5834107" lon="12.5179467"><ele>1001.5</ele><time>2026-04-24T16:51:07.059Z</time></trkpt><trkpt lat="46.5834787" lon="12.517858"><ele>1001.0</ele><time>2026-04-24T16:51:10.058Z</time></trkpt><trkpt lat="46.5835327" lon="12.5177505"><ele>1000.5</ele><time>2026-04-24T16:51:13.057Z</time></trkpt><trkpt lat="46.583587" lon="12.5176403"><ele>1000.0</ele><time>2026-04-24T16:51:16.071Z</time></trkpt><trkpt lat="46.5836386" lon="12.517525"><ele>999.5</ele><time>2026-04-24T16:51:19.052Z</time></trkpt><trkpt lat="46.5836805" lon="12.5174524"><ele>999.0</ele><time>2026-04-24T16:51:21.054Z</time></trkpt><trkpt lat="46.5837318" lon="12.5173526"><ele>999.0</ele><time>2026-04-24T16:51:24.062Z</time></trkpt><trkpt lat="46.5837715" lon="12.5172522"><ele>999.0</ele><time>2026-04-24T16:51:27.053Z</time></trkpt><trkpt lat="46.5838143" lon="12.5171518"><ele>999.0</ele><time>2026-04-24T16:51:30.066Z</time></trkpt><trkpt lat="46.5838644" lon="12.5170508"><ele>999.0</ele><time>2026-04-24T16:51:33.056Z</time></trkpt><trkpt lat="46.5839056" lon="12.5169749"><ele>999.0</ele><time>2026-04-24T16:51:35.051Z</time></trkpt><trkpt lat="46.5839467" lon="12.5168985"><ele>999.0</ele><time>2026-04-24T16:51:37.099Z</time></trkpt><trkpt lat="46.5839956" lon="12.51679"><ele>1000.8333333333334</ele><time>2026-04-24T16:51:40.061Z</time></trkpt><trkpt lat="46.5840422" lon="12.5166913"><ele>1002.6666666666667</ele><time>2026-04-24T16:51:43.056Z</time></trkpt><trkpt lat="46.584087" lon="12.5165792"><ele>1004.5</ele><time>2026-04-24T16:51:46.057Z</time></trkpt><trkpt lat="46.584128" lon="12.5164749"><ele>1006.3333333333334</ele><time>2026-04-24T16:51:49.067Z</time></trkpt><trkpt lat="46.5841765" lon="12.5163776"><ele>1008.1666666666667</ele><time>2026-04-24T16:51:52.088Z</time></trkpt><trkpt lat="46.5842308" lon="12.5162821"><ele>1010.0</ele><time>2026-04-24T16:51:55.056Z</time></trkpt><trkpt lat="46.584282" lon="12.5161895"><ele>1012.5000000000001</ele><time>2026-04-24T16:51:58.061Z</time></trkpt><trkpt lat="46.5843211" lon="12.5161171"><ele>1015.0</ele><time>2026-04-24T16:52:00.058Z</time></trkpt><trkpt lat="46.584373" lon="12.516006"><ele>1017.5</ele><time>2026-04-24T16:52:03.057Z</time></trkpt><trkpt lat="46.5844228" lon="12.5159034"><ele>1020.0</ele><time>2026-04-24T16:52:06.058Z</time></trkpt><trkpt lat="46.5844773" lon="12.5158125"><ele>1022.5000000000001</ele><time>2026-04-24T16:52:09.057Z</time></trkpt><trkpt lat="46.5845366" lon="12.5157314"><ele>1025.0</ele><time>2026-04-24T16:52:12.055Z</time></trkpt><trkpt lat="46.5846112" lon="12.5156413"><ele>1025.0</ele><time>2026-04-24T16:52:15.088Z</time></trkpt><trkpt lat="46.5846535" lon="12.5155705"><ele>1025.0</ele><time>2026-04-24T16:52:17.065Z</time></trkpt><trkpt lat="46.5846959" lon="12.5154578"><ele>1025.0</ele><time>2026-04-24T16:52:20.06Z</time></trkpt><trkpt lat="46.5847281" lon="12.5153452"><ele>1025.0</ele><time>2026-04-24T16:52:23.089Z</time></trkpt><trkpt lat="46.5847568" lon="12.5152447"><ele>1025.0</ele><time>2026-04-24T16:52:26.066Z</time></trkpt><trkpt lat="46.5847885" lon="12.5151456"><ele>1025.0</ele><time>2026-04-24T16:52:29.065Z</time></trkpt><trkpt lat="46.5848178" lon="12.5150292"><ele>1025.1666666666667</ele><time>2026-04-24T16:52:32.061Z</time></trkpt><trkpt lat="46.5848521" lon="12.5149126"><ele>1025.3333333333335</ele><time>2026-04-24T16:52:35.057Z</time></trkpt><trkpt lat="46.5848911" lon="12.5148082"><ele>1025.5</ele><time>2026-04-24T16:52:38.085Z</time></trkpt><trkpt lat="46.584925" lon="12.5147047"><ele>1025.6666666666667</ele><time>2026-04-24T16:52:41.069Z</time></trkpt><trkpt lat="46.5849673" lon="12.5145934"><ele>1025.8333333333333</ele><time>2026-04-24T16:52:44.066Z</time></trkpt><trkpt lat="46.5849966" lon="12.5144732"><ele>1026.0</ele><time>2026-04-24T16:52:47.078Z</time></trkpt><trkpt lat="46.5850254" lon="12.514362"><ele>1026.0</ele><time>2026-04-24T16:52:50.1Z</time></trkpt><trkpt lat="46.5850538" lon="12.5142631"><ele>1026.0</ele><time>2026-04-24T16:52:53.053Z</time></trkpt><trkpt lat="46.5850779" lon="12.5141493"><ele>1026.0</ele><time>2026-04-24T16:52:56.063Z</time></trkpt><trkpt lat="46.5851015" lon="12.5140234"><ele>1026.0</ele><time>2026-04-24T16:52:59.082Z</time></trkpt><trkpt lat="46.5851476" lon="12.5139194"><ele>1026.0</ele><time>2026-04-24T16:53:02.055Z</time></trkpt><trkpt lat="46.5851889" lon="12.513814"><ele>1026.0</ele><time>2026-04-24T16:53:05.053Z</time></trkpt><trkpt lat="46.5852418" lon="12.5137109"><ele>1025.0</ele><time>2026-04-24T16:53:08.056Z</time></trkpt><trkpt lat="46.5852319" lon="12.5135762"><ele>1024.0</ele><time>2026-04-24T16:53:11.057Z</time></trkpt><trkpt lat="46.5852003" lon="12.5134919"><ele>1023.0</ele><time>2026-04-24T16:53:13.058Z</time></trkpt><trkpt lat="46.5851698" lon="12.5133708"><ele>1022.0</ele><time>2026-04-24T16:53:15.984Z</time></trkpt><trkpt lat="46.5851612" lon="12.5132772"><ele>1021.0</ele><time>2026-04-24T16:53:18.057Z</time></trkpt><trkpt lat="46.5851672" lon="12.5131477"><ele>1020.0</ele><time>2026-04-24T16:53:21.056Z</time></trkpt><trkpt lat="46.585189" lon="12.5130199"><ele>1020.8333333333334</ele><time>2026-04-24T16:53:24.057Z</time></trkpt><trkpt lat="46.585228" lon="12.5129047"><ele>1021.6666666666667</ele><time>2026-04-24T16:53:27.057Z</time></trkpt><trkpt lat="46.5852784" lon="12.5127987"><ele>1022.5</ele><time>2026-04-24T16:53:30.057Z</time></trkpt><trkpt lat="46.5853195" lon="12.5126828"><ele>1023.3333333333334</ele><time>2026-04-24T16:53:33.058Z</time></trkpt><trkpt lat="46.5853681" lon="12.5125788"><ele>1024.1666666666667</ele><time>2026-04-24T16:53:36.057Z</time></trkpt><trkpt lat="46.5854049" lon="12.5124663"><ele>1025.0</ele><time>2026-04-24T16:53:39.057Z</time></trkpt><trkpt lat="46.5853969" lon="12.5123567"><ele>1025.0</ele><time>2026-04-24T16:53:41.985Z</time></trkpt><trkpt lat="46.585464" lon="12.5122648"><ele>1025.0</ele><time>2026-04-24T16:53:45.056Z</time></trkpt><trkpt lat="46.5855281" lon="12.5121976"><ele>1025.0</ele><time>2026-04-24T16:53:48.057Z</time></trkpt><trkpt lat="46.5855915" lon="12.5121428"><ele>1025.0</ele><time>2026-04-24T16:53:51.057Z</time></trkpt><trkpt lat="46.5856451" lon="12.5120934"><ele>1025.0</ele><time>2026-04-24T16:53:54.058Z</time></trkpt><trkpt lat="46.585702" lon="12.5120433"><ele>1025.0</ele><time>2026-04-24T16:53:57.057Z</time></trkpt><trkpt lat="46.585766" lon="12.5119871"><ele>1025.8333333333335</ele><time>2026-04-24T16:54:00.03Z</time></trkpt><trkpt lat="46.5858299" lon="12.511904"><ele>1026.6666666666667</ele><time>2026-04-24T16:54:03.058Z</time></trkpt><trkpt lat="46.5858804" lon="12.5118447"><ele>1027.5</ele><time>2026-04-24T16:54:05.057Z</time></trkpt><trkpt lat="46.5859614" lon="12.5118066"><ele>1028.3333333333333</ele><time>2026-04-24T16:54:08.057Z</time></trkpt><trkpt lat="46.5860433" lon="12.5117918"><ele>1029.1666666666665</ele><time>2026-04-24T16:54:11.057Z</time></trkpt><trkpt lat="46.58612" lon="12.5117799"><ele>1030.0</ele><time>2026-04-24T16:54:14.058Z</time></trkpt><trkpt lat="46.5861945" lon="12.5117579"><ele>1031.8333333333333</ele><time>2026-04-24T16:54:17.057Z</time></trkpt><trkpt lat="46.5862742" lon="12.5117387"><ele>1033.6666666666665</ele><time>2026-04-24T16:54:20.073Z</time></trkpt><trkpt lat="46.5863555" lon="12.5116986"><ele>1035.5</ele><time>2026-04-24T16:54:23.056Z</time></trkpt><trkpt lat="46.5864211" lon="12.5116346"><ele>1037.3333333333333</ele><time>2026-04-24T16:54:25.988Z</time></trkpt><trkpt lat="46.5864881" lon="12.5115575"><ele>1039.1666666666667</ele><time>2026-04-24T16:54:29.003Z</time></trkpt><trkpt lat="46.5865555" lon="12.5114739"><ele>1041.0</ele><time>2026-04-24T16:54:32.045Z</time></trkpt><trkpt lat="46.5866072" lon="12.5114076"><ele>1041.0</ele><time>2026-04-24T16:54:34.057Z</time></trkpt><trkpt lat="46.5866598" lon="12.5113381"><ele>1041.0</ele><time>2026-04-24T16:54:36.073Z</time></trkpt><trkpt lat="46.5867132" lon="12.5112625"><ele>1041.0</ele><time>2026-04-24T16:54:38.057Z</time></trkpt><trkpt lat="46.5867546" lon="12.5111862"><ele>1041.0</ele><time>2026-04-24T16:54:40.089Z</time></trkpt><trkpt lat="46.5868034" lon="12.5110818"><ele>1041.0</ele><time>2026-04-24T16:54:43.073Z</time></trkpt><trkpt lat="46.586843" lon="12.510997"><ele>1041.0</ele><time>2026-04-24T16:54:46.157Z</time></trkpt><trkpt lat="46.5868931" lon="12.5109063"><ele>1041.8333333333333</ele><time>2026-04-24T16:54:49.057Z</time></trkpt><trkpt lat="46.5869483" lon="12.5108218"><ele>1042.6666666666667</ele><time>2026-04-24T16:54:52.095Z</time></trkpt><trkpt lat="46.5870004" lon="12.51074"><ele>1043.5</ele><time>2026-04-24T16:54:55.026Z</time></trkpt><trkpt lat="46.5870468" lon="12.5106389"><ele>1044.3333333333335</ele><time>2026-04-24T16:54:58.057Z</time></trkpt><trkpt lat="46.5870842" lon="12.5105338"><ele>1045.1666666666667</ele><time>2026-04-24T16:55:01.059Z</time></trkpt><trkpt lat="46.5871038" lon="12.5104035"><ele>1046.0</ele><time>2026-04-24T16:55:04.057Z</time></trkpt><trkpt lat="46.5871256" lon="12.5102851"><ele>1048.8333333333335</ele><time>2026-04-24T16:55:07.061Z</time></trkpt><trkpt lat="46.5871516" lon="12.5101651"><ele>1051.6666666666667</ele><time>2026-04-24T16:55:10.057Z</time></trkpt><trkpt lat="46.5871674" lon="12.5100591"><ele>1054.5</ele><time>2026-04-24T16:55:12.967Z</time></trkpt><trkpt lat="46.5871442" lon="12.5099333"><ele>1057.3333333333333</ele><time>2026-04-24T16:55:15.98Z</time></trkpt><trkpt lat="46.5871403" lon="12.5098016"><ele>1060.1666666666665</ele><time>2026-04-24T16:55:19.047Z</time></trkpt><trkpt lat="46.5871299" lon="12.5096469"><ele>1063.0</ele><time>2026-04-24T16:55:22.818Z</time></trkpt><trkpt lat="46.5871237" lon="12.509555"><ele>1063.0</ele><time>2026-04-24T16:55:25.049Z</time></trkpt><trkpt lat="46.5871206" lon="12.5094222"><ele>1063.0</ele><time>2026-04-24T16:55:28.064Z</time></trkpt><trkpt lat="46.587121" lon="12.5092955"><ele>1063.0</ele><time>2026-04-24T16:55:31.087Z</time></trkpt><trkpt lat="46.5871093" lon="12.509169"><ele>1063.0</ele><time>2026-04-24T16:55:34.061Z</time></trkpt><trkpt lat="46.5870979" lon="12.5090788"><ele>1063.0</ele><time>2026-04-24T16:55:36.044Z</time></trkpt><trkpt lat="46.5870604" lon="12.5089715"><ele>1063.0</ele><time>2026-04-24T16:55:39.077Z</time></trkpt><trkpt lat="46.5870268" lon="12.5088829"><ele>1063.4285714285713</ele><time>2026-04-24T16:55:42.057Z</time></trkpt><trkpt lat="46.5869832" lon="12.5087953"><ele>1063.857142857143</ele><time>2026-04-24T16:55:45.064Z</time></trkpt><trkpt lat="46.5869416" lon="12.5087129"><ele>1064.2857142857142</ele><time>2026-04-24T16:55:48.081Z</time></trkpt><trkpt lat="46.5869074" lon="12.5086309"><ele>1064.7142857142858</ele><time>2026-04-24T16:55:50.064Z</time></trkpt><trkpt lat="46.5868695" lon="12.5085368"><ele>1065.142857142857</ele><time>2026-04-24T16:55:52.061Z</time></trkpt><trkpt lat="46.5868344" lon="12.5084523"><ele>1065.5714285714284</ele><time>2026-04-24T16:55:54.061Z</time></trkpt><trkpt lat="46.5867976" lon="12.5083398"><ele>1066.0</ele><time>2026-04-24T16:55:57.057Z</time></trkpt><trkpt lat="46.5867579" lon="12.5082369"><ele>1064.3333333333333</ele><time>2026-04-24T16:56:00.061Z</time></trkpt><trkpt lat="46.5867209" lon="12.508119"><ele>1062.6666666666665</ele><time>2026-04-24T16:56:03.058Z</time></trkpt><trkpt lat="46.5867092" lon="12.5080257"><ele>1061.0</ele><time>2026-04-24T16:56:05.079Z</time></trkpt><trkpt lat="46.5867097" lon="12.5079318"><ele>1059.3333333333333</ele><time>2026-04-24T16:56:07.087Z</time></trkpt><trkpt lat="46.5867216" lon="12.5078089"><ele>1057.6666666666667</ele><time>2026-04-24T16:56:10.079Z</time></trkpt><trkpt lat="46.5867474" lon="12.5076946"><ele>1056.0</ele><time>2026-04-24T16:56:13.02Z</time></trkpt><trkpt lat="46.5867797" lon="12.5075844"><ele>1054.6666666666667</ele><time>2026-04-24T16:56:16.063Z</time></trkpt><trkpt lat="46.5868248" lon="12.5074821"><ele>1053.3333333333333</ele><time>2026-04-24T16:56:19.052Z</time></trkpt><trkpt lat="46.5868726" lon="12.5073724"><ele>1052.0</ele><time>2026-04-24T16:56:22.064Z</time></trkpt><trkpt lat="46.5869103" lon="12.5072977"><ele>1050.6666666666665</ele><time>2026-04-24T16:56:24.089Z</time></trkpt><trkpt lat="46.5869381" lon="12.5071857"><ele>1049.3333333333333</ele><time>2026-04-24T16:56:27.085Z</time></trkpt><trkpt lat="46.5869493" lon="12.5070568"><ele>1048.0</ele><time>2026-04-24T16:56:30.062Z</time></trkpt><trkpt lat="46.5869435" lon="12.5069639"><ele>1048.0</ele><time>2026-04-24T16:56:32.06Z</time></trkpt><trkpt lat="46.5869284" lon="12.5068552"><ele>1048.0</ele><time>2026-04-24T16:56:34.115Z</time></trkpt><trkpt lat="46.5868801" lon="12.5067379"><ele>1048.0</ele><time>2026-04-24T16:56:37.08Z</time></trkpt><trkpt lat="46.5868188" lon="12.5066484"><ele>1048.0</ele><time>2026-04-24T16:56:40.063Z</time></trkpt><trkpt lat="46.5867631" lon="12.5065648"><ele>1048.0</ele><time>2026-04-24T16:56:43.081Z</time></trkpt><trkpt lat="46.5867528" lon="12.5064625"><ele>1048.0</ele><time>2026-04-24T16:56:46.104Z</time></trkpt><trkpt lat="46.5867857" lon="12.5063412"><ele>1048.2</ele><time>2026-04-24T16:56:49.078Z</time></trkpt><trkpt lat="46.5868225" lon="12.5062418"><ele>1048.4</ele><time>2026-04-24T16:56:52.064Z</time></trkpt><trkpt lat="46.586872" lon="12.5061472"><ele>1048.6000000000001</ele><time>2026-04-24T16:56:55.086Z</time></trkpt><trkpt lat="46.5869067" lon="12.5060376"><ele>1048.8</ele><time>2026-04-24T16:56:58.063Z</time></trkpt><trkpt lat="46.5870582" lon="12.5060983"><ele>1049.0</ele><time>2026-04-24T16:57:01.056Z</time></trkpt><trkpt lat="46.5871273" lon="12.5061637"><ele>1045.8333333333335</ele><time>2026-04-24T16:57:03.08Z</time></trkpt><trkpt lat="46.5872097" lon="12.5061026"><ele>1042.6666666666667</ele><time>2026-04-24T16:57:05.057Z</time></trkpt><trkpt lat="46.5872876" lon="12.5060711"><ele>1039.5</ele><time>2026-04-24T16:57:08.059Z</time></trkpt><trkpt lat="46.5873485" lon="12.5060279"><ele>1036.3333333333333</ele><time>2026-04-24T16:57:11.058Z</time></trkpt><trkpt lat="46.587412" lon="12.5059825"><ele>1033.1666666666665</ele><time>2026-04-24T16:57:14.064Z</time></trkpt><trkpt lat="46.5874708" lon="12.5059383"><ele>1030.0</ele><time>2026-04-24T16:57:17.058Z</time></trkpt><trkpt lat="46.5875656" lon="12.5058963"><ele>1030.0</ele><time>2026-04-24T16:57:21.054Z</time></trkpt><trkpt lat="46.5876271" lon="12.5058576"><ele>1030.0</ele><time>2026-04-24T16:57:24.095Z</time></trkpt><trkpt lat="46.5876896" lon="12.5058106"><ele>1030.0</ele><time>2026-04-24T16:57:27.055Z</time></trkpt><trkpt lat="46.5877552" lon="12.505764"><ele>1030.0</ele><time>2026-04-24T16:57:30.063Z</time></trkpt><trkpt lat="46.5878163" lon="12.5057244"><ele>1030.0</ele><time>2026-04-24T16:57:33.057Z</time></trkpt><trkpt lat="46.5878788" lon="12.5056873"><ele>1030.0</ele><time>2026-04-24T16:57:36.062Z</time></trkpt><trkpt lat="46.5879306" lon="12.5056279"><ele>1030.0</ele><time>2026-04-24T16:57:39.082Z</time></trkpt><trkpt lat="46.5879876" lon="12.5055483"><ele>1031.5714285714287</ele><time>2026-04-24T16:57:42.058Z</time></trkpt><trkpt lat="46.5880469" lon="12.5054793"><ele>1033.142857142857</ele><time>2026-04-24T16:57:45.058Z</time></trkpt><trkpt lat="46.5881059" lon="12.5054189"><ele>1034.7142857142858</ele><time>2026-04-24T16:57:48.087Z</time></trkpt><trkpt lat="46.5881563" lon="12.5053621"><ele>1036.2857142857142</ele><time>2026-04-24T16:57:51.085Z</time></trkpt><trkpt lat="46.5882167" lon="12.5053146"><ele>1037.857142857143</ele><time>2026-04-24T16:57:54.062Z</time></trkpt><trkpt lat="46.5882931" lon="12.505238"><ele>1039.4285714285716</ele><time>2026-04-24T16:57:58.054Z</time></trkpt><trkpt lat="46.588345" lon="12.5051734"><ele>1041.0</ele><time>2026-04-24T16:58:01.058Z</time></trkpt><trkpt lat="46.5883955" lon="12.505103"><ele>1041.0</ele><time>2026-04-24T16:58:04.056Z</time></trkpt><trkpt lat="46.588448" lon="12.5050152"><ele>1041.0</ele><time>2026-04-24T16:58:07.078Z</time></trkpt><trkpt lat="46.5884975" lon="12.5049411"><ele>1041.0</ele><time>2026-04-24T16:58:10.049Z</time></trkpt><trkpt lat="46.5885445" lon="12.5048797"><ele>1041.0</ele><time>2026-04-24T16:58:13.056Z</time></trkpt><trkpt lat="46.5885908" lon="12.5048169"><ele>1041.0</ele><time>2026-04-24T16:58:16.058Z</time></trkpt><trkpt lat="46.5886429" lon="12.5047335"><ele>1041.0</ele><time>2026-04-24T16:58:19.058Z</time></trkpt><trkpt lat="46.5886861" lon="12.5046617"><ele>1041.0</ele><time>2026-04-24T16:58:22.079Z</time></trkpt><trkpt lat="46.5887204" lon="12.5045848"><ele>1044.8333333333333</ele><time>2026-04-24T16:58:25.058Z</time></trkpt><trkpt lat="46.5887385" lon="12.504474"><ele>1048.6666666666667</ele><time>2026-04-24T16:58:28.077Z</time></trkpt><trkpt lat="46.5887328" lon="12.504363"><ele>1052.5</ele><time>2026-04-24T16:58:31.058Z</time></trkpt><trkpt lat="46.5887271" lon="12.5042572"><ele>1056.3333333333335</ele><time>2026-04-24T16:58:34.071Z</time></trkpt><trkpt lat="46.5887232" lon="12.5041473"><ele>1060.1666666666667</ele><time>2026-04-24T16:58:37.085Z</time></trkpt><trkpt lat="46.5887297" lon="12.5040414"><ele>1064.0</ele><time>2026-04-24T16:58:39.972Z</time></trkpt><trkpt lat="46.5887487" lon="12.5039208"><ele>1064.0</ele><time>2026-04-24T16:58:43.086Z</time></trkpt><trkpt lat="46.5887577" lon="12.5038086"><ele>1064.0</ele><time>2026-04-24T16:58:46.066Z</time></trkpt><trkpt lat="46.5887548" lon="12.5036903"><ele>1064.0</ele><time>2026-04-24T16:58:49.058Z</time></trkpt><trkpt lat="46.5887629" lon="12.5035764"><ele>1064.0</ele><time>2026-04-24T16:58:52.057Z</time></trkpt><trkpt lat="46.5887859" lon="12.503469"><ele>1064.0</ele><time>2026-04-24T16:58:55.057Z</time></trkpt><trkpt lat="46.5888084" lon="12.5033603"><ele>1064.0</ele><time>2026-04-24T16:58:58.084Z</time></trkpt><trkpt lat="46.5888291" lon="12.5032431"><ele>1062.857142857143</ele><time>2026-04-24T16:59:01.143Z</time></trkpt><trkpt lat="46.5888463" lon="12.503126"><ele>1061.7142857142858</ele><time>2026-04-24T16:59:04.065Z</time></trkpt><trkpt lat="46.588867" lon="12.5030007"><ele>1060.5714285714284</ele><time>2026-04-24T16:59:07.054Z</time></trkpt><trkpt lat="46.5888852" lon="12.5029103"><ele>1059.4285714285716</ele><time>2026-04-24T16:59:09.077Z</time></trkpt><trkpt lat="46.5889044" lon="12.5028157"><ele>1058.2857142857142</ele><time>2026-04-24T16:59:11.052Z</time></trkpt><trkpt lat="46.588931" lon="12.5027072"><ele>1057.142857142857</ele><time>2026-04-24T16:59:14.057Z</time></trkpt><trkpt lat="46.5889621" lon="12.5026229"><ele>1056.0</ele><time>2026-04-24T16:59:17.079Z</time></trkpt><trkpt lat="46.5889748" lon="12.5025068"><ele>1055.142857142857</ele><time>2026-04-24T16:59:20.055Z</time></trkpt><trkpt lat="46.5889572" lon="12.5023717"><ele>1054.2857142857142</ele><time>2026-04-24T16:59:23.073Z</time></trkpt><trkpt lat="46.5889263" lon="12.5022878"><ele>1053.4285714285716</ele><time>2026-04-24T16:59:25.057Z</time></trkpt><trkpt lat="46.5888984" lon="12.5022053"><ele>1052.5714285714284</ele><time>2026-04-24T16:59:27.053Z</time></trkpt><trkpt lat="46.5888572" lon="12.5021191"><ele>1051.7142857142858</ele><time>2026-04-24T16:59:29.057Z</time></trkpt><trkpt lat="46.5888214" lon="12.50204"><ele>1050.857142857143</ele><time>2026-04-24T16:59:31.081Z</time></trkpt><trkpt lat="46.5887768" lon="12.5019353"><ele>1050.0</ele><time>2026-04-24T16:59:34.063Z</time></trkpt><trkpt lat="46.5887536" lon="12.501824"><ele>1050.0</ele><time>2026-04-24T16:59:37.056Z</time></trkpt><trkpt lat="46.5887708" lon="12.5016819"><ele>1050.0</ele><time>2026-04-24T16:59:41.057Z</time></trkpt><trkpt lat="46.5887948" lon="12.5015798"><ele>1050.0</ele><time>2026-04-24T16:59:44.052Z</time></trkpt><trkpt lat="46.5888053" lon="12.5014886"><ele>1050.0</ele><time>2026-04-24T16:59:47.964Z</time></trkpt><trkpt lat="46.5888063" lon="12.5013956"><ele>1050.0</ele><time>2026-04-24T16:59:52.056Z</time></trkpt><trkpt lat="46.5888058" lon="12.5012922"><ele>1050.0</ele><time>2026-04-24T16:59:57.057Z</time></trkpt><trkpt lat="46.5888355" lon="12.5011893"><ele>1050.0</ele><time>2026-04-24T17:00:02.079Z</time></trkpt><trkpt lat="46.5889012" lon="12.5011806"><ele>1050.0</ele><time>2026-04-24T17:00:06.046Z</time></trkpt><trkpt lat="46.5889499" lon="12.5012455"><ele>1050.0</ele><time>2026-04-24T17:00:09.057Z</time></trkpt><trkpt lat="46.588978" lon="12.5013285"><ele>1050.0</ele><time>2026-04-24T17:00:11.983Z</time></trkpt><trkpt lat="46.5890335" lon="12.5014122"><ele>1050.0</ele><time>2026-04-24T17:00:15.987Z</time></trkpt><trkpt lat="46.58909" lon="12.5014878"><ele>1050.0</ele><time>2026-04-24T17:00:20.065Z</time></trkpt><trkpt lat="46.5891473" lon="12.5015312"><ele>1050.0</ele><time>2026-04-24T17:00:24.065Z</time></trkpt><trkpt lat="46.589213" lon="12.501511"><ele>1050.0</ele><time>2026-04-24T17:00:29.071Z</time></trkpt><trkpt lat="46.5892575" lon="12.5014246"><ele>1050.0</ele><time>2026-04-24T17:00:33.088Z</time></trkpt><trkpt lat="46.5892377" lon="12.5013136"><ele>1050.0</ele><time>2026-04-24T17:00:37.063Z</time></trkpt><trkpt lat="46.5892104" lon="12.5012233"><ele>1050.0</ele><time>2026-04-24T17:00:40.057Z</time></trkpt><trkpt lat="46.5891692" lon="12.5011303"><ele>1050.0</ele><time>2026-04-24T17:00:44.062Z</time></trkpt><trkpt lat="46.5891383" lon="12.5010344"><ele>1050.0</ele><time>2026-04-24T17:00:48.057Z</time></trkpt><trkpt lat="46.5891039" lon="12.5009572"><ele>1050.0</ele><time>2026-04-24T17:00:52.059Z</time></trkpt><trkpt lat="46.5890714" lon="12.5008587"><ele>1050.0</ele><time>2026-04-24T17:00:57.023Z</time></trkpt><trkpt lat="46.5890563" lon="12.500765"><ele>1053.0</ele><time>2026-04-24T17:01:01.059Z</time></trkpt><trkpt lat="46.5891061" lon="12.500674"><ele>1056.0</ele><time>2026-04-24T17:01:06.058Z</time></trkpt><trkpt lat="46.5891794" lon="12.5006695"><ele>1059.0</ele><time>2026-04-24T17:01:10.058Z</time></trkpt><trkpt lat="46.5892361" lon="12.5007362"><ele>1062.0</ele><time>2026-04-24T17:01:14.058Z</time></trkpt><trkpt lat="46.5892909" lon="12.5008016"><ele>1065.0</ele><time>2026-04-24T17:01:18.089Z</time></trkpt><trkpt lat="46.5893576" lon="12.5008378"><ele>1068.0</ele><time>2026-04-24T17:01:23.058Z</time></trkpt><trkpt lat="46.5894267" lon="12.5008719"><ele>1071.0</ele><time>2026-04-24T17:01:28.085Z</time></trkpt><trkpt lat="46.5894908" lon="12.5009128"><ele>1075.142857142857</ele><time>2026-04-24T17:01:33.057Z</time></trkpt><trkpt lat="46.589554" lon="12.5009663"><ele>1079.2857142857142</ele><time>2026-04-24T17:01:39.058Z</time></trkpt><trkpt lat="46.5896242" lon="12.5009742"><ele>1083.4285714285716</ele><time>2026-04-24T17:01:44.057Z</time></trkpt><trkpt lat="46.5896932" lon="12.5009525"><ele>1087.5714285714284</ele><time>2026-04-24T17:01:49.058Z</time></trkpt><trkpt lat="46.5897465" lon="12.5009019"><ele>1091.7142857142858</ele><time>2026-04-24T17:01:53.057Z</time></trkpt><trkpt lat="46.5898178" lon="12.5009043"><ele>1095.857142857143</ele><time>2026-04-24T17:01:57.058Z</time></trkpt><trkpt lat="46.5898825" lon="12.5009434"><ele>1100.0</ele><time>2026-04-24T17:02:01.02Z</time></trkpt><trkpt lat="46.5899509" lon="12.5009381"><ele>1100.0</ele><time>2026-04-24T17:02:06.9Z</time></trkpt><trkpt lat="46.5900115" lon="12.5008872"><ele>1100.0</ele><time>2026-04-24T17:02:13.058Z</time></trkpt><trkpt lat="46.5900711" lon="12.5008383"><ele>1100.0</ele><time>2026-04-24T17:02:17.06Z</time></trkpt><trkpt lat="46.5901453" lon="12.5008111"><ele>1100.0</ele><time>2026-04-24T17:02:22.058Z</time></trkpt><trkpt lat="46.59022" lon="12.5008196"><ele>1100.0</ele><time>2026-04-24T17:02:25.972Z</time></trkpt><trkpt lat="46.5902911" lon="12.5008283"><ele>1100.0</ele><time>2026-04-24T17:02:30.058Z</time></trkpt><trkpt lat="46.5903678" lon="12.5008401"><ele>1100.0</ele><time>2026-04-24T17:02:35.058Z</time></trkpt><trkpt lat="46.5904281" lon="12.5007934"><ele>1100.7142857142858</ele><time>2026-04-24T17:02:39.058Z</time></trkpt><trkpt lat="46.5904511" lon="12.5006887"><ele>1101.4285714285713</ele><time>2026-04-24T17:02:43.058Z</time></trkpt><trkpt lat="46.5904534" lon="12.5005714"><ele>1102.142857142857</ele><time>2026-04-24T17:02:47.058Z</time></trkpt><trkpt lat="46.5904499" lon="12.5004582"><ele>1102.857142857143</ele><time>2026-04-24T17:02:51.006Z</time></trkpt><trkpt lat="46.5904648" lon="12.5003656"><ele>1103.5714285714287</ele><time>2026-04-24T17:02:54.01Z</time></trkpt><trkpt lat="46.590489" lon="12.5002694"><ele>1104.2857142857142</ele><time>2026-04-24T17:02:57.043Z</time></trkpt><trkpt lat="46.5905184" lon="12.5001672"><ele>1105.0</ele><time>2026-04-24T17:03:00.086Z</time></trkpt><trkpt lat="46.5905334" lon="12.5000595"><ele>1105.0</ele><time>2026-04-24T17:03:03.054Z</time></trkpt><trkpt lat="46.5905443" lon="12.499948"><ele>1105.0</ele><time>2026-04-24T17:03:06.062Z</time></trkpt><trkpt lat="46.5905609" lon="12.4998374"><ele>1105.0</ele><time>2026-04-24T17:03:09.058Z</time></trkpt><trkpt lat="46.5905816" lon="12.4997243"><ele>1105.0</ele><time>2026-04-24T17:03:12.072Z</time></trkpt><trkpt lat="46.5906293" lon="12.4996209"><ele>1105.0</ele><time>2026-04-24T17:03:15.044Z</time></trkpt><trkpt lat="46.5906833" lon="12.4995255"><ele>1105.0</ele><time>2026-04-24T17:03:18.058Z</time></trkpt><trkpt lat="46.5907315" lon="12.4994297"><ele>1108.0</ele><time>2026-04-24T17:03:21.056Z</time></trkpt><trkpt lat="46.5907778" lon="12.4993267"><ele>1111.0</ele><time>2026-04-24T17:03:24.054Z</time></trkpt><trkpt lat="46.5908328" lon="12.4992331"><ele>1114.0</ele><time>2026-04-24T17:03:27.059Z</time></trkpt><trkpt lat="46.5908966" lon="12.4991402"><ele>1117.0</ele><time>2026-04-24T17:03:30.056Z</time></trkpt><trkpt lat="46.5909634" lon="12.4990581"><ele>1120.0</ele><time>2026-04-24T17:03:33.064Z</time></trkpt><trkpt lat="46.5910222" lon="12.4989874"><ele>1123.0</ele><time>2026-04-24T17:03:36.057Z</time></trkpt><trkpt lat="46.5910727" lon="12.4989191"><ele>1122.9999999999998</ele><time>2026-04-24T17:03:40.061Z</time></trkpt><trkpt lat="46.5911156" lon="12.4988421"><ele>1123.0</ele><time>2026-04-24T17:03:44.064Z</time></trkpt><trkpt lat="46.5911581" lon="12.498759"><ele>1123.0</ele><time>2026-04-24T17:03:47.086Z</time></trkpt><trkpt lat="46.5912101" lon="12.4986513"><ele>1123.0</ele><time>2026-04-24T17:03:50.064Z</time></trkpt><trkpt lat="46.5912503" lon="12.4985675"><ele>1123.0</ele><time>2026-04-24T17:03:52.061Z</time></trkpt><trkpt lat="46.5912969" lon="12.4984885"><ele>1122.9999999999998</ele><time>2026-04-24T17:03:54.057Z</time></trkpt><trkpt lat="46.5913464" lon="12.4984167"><ele>1123.0</ele><time>2026-04-24T17:03:56.06Z</time></trkpt><trkpt lat="46.5914019" lon="12.498359"><ele>1122.142857142857</ele><time>2026-04-24T17:03:58.062Z</time></trkpt><trkpt lat="46.5914624" lon="12.4983001"><ele>1121.2857142857142</ele><time>2026-04-24T17:04:02.077Z</time></trkpt><trkpt lat="46.5915154" lon="12.4982391"><ele>1120.4285714285716</ele><time>2026-04-24T17:04:05.055Z</time></trkpt><trkpt lat="46.5915698" lon="12.4981742"><ele>1119.5714285714284</ele><time>2026-04-24T17:04:08.063Z</time></trkpt><trkpt lat="46.5916346" lon="12.498101"><ele>1118.7142857142858</ele><time>2026-04-24T17:04:11.047Z</time></trkpt><trkpt lat="46.5917017" lon="12.4980279"><ele>1117.857142857143</ele><time>2026-04-24T17:04:14.06Z</time></trkpt><trkpt lat="46.591752" lon="12.4979594"><ele>1117.0</ele><time>2026-04-24T17:04:17.058Z</time></trkpt><trkpt lat="46.5918037" lon="12.497894"><ele>1117.6666666666665</ele><time>2026-04-24T17:04:20.077Z</time></trkpt><trkpt lat="46.591858" lon="12.4978096"><ele>1118.3333333333333</ele><time>2026-04-24T17:04:24.058Z</time></trkpt><trkpt lat="46.5919101" lon="12.4977297"><ele>1119.0</ele><time>2026-04-24T17:04:28.047Z</time></trkpt><trkpt lat="46.5919767" lon="12.4976694"><ele>1119.6666666666667</ele><time>2026-04-24T17:04:32.09Z</time></trkpt><trkpt lat="46.5920313" lon="12.4975898"><ele>1120.3333333333335</ele><time>2026-04-24T17:04:36.067Z</time></trkpt><trkpt lat="46.5920925" lon="12.4975172"><ele>1121.0</ele><time>2026-04-24T17:04:41.06Z</time></trkpt><trkpt lat="46.5921341" lon="12.4974189"><ele>1121.0</ele><time>2026-04-24T17:04:45.063Z</time></trkpt><trkpt lat="46.5921814" lon="12.4973154"><ele>1121.0</ele><time>2026-04-24T17:04:48.068Z</time></trkpt><trkpt lat="46.5922295" lon="12.4972119"><ele>1121.0</ele><time>2026-04-24T17:04:51.064Z</time></trkpt><trkpt lat="46.5922772" lon="12.4971144"><ele>1121.0</ele><time>2026-04-24T17:04:54.061Z</time></trkpt><trkpt lat="46.5923285" lon="12.4970396"><ele>1121.0</ele><time>2026-04-24T17:04:57.057Z</time></trkpt><trkpt lat="46.5923758" lon="12.4969567"><ele>1121.0</ele><time>2026-04-24T17:05:01.055Z</time></trkpt><trkpt lat="46.5924207" lon="12.4968642"><ele>1124.0</ele><time>2026-04-24T17:05:05.06Z</time></trkpt><trkpt lat="46.5924589" lon="12.4967729"><ele>1127.0</ele><time>2026-04-24T17:05:14.061Z</time></trkpt><trkpt lat="46.5924979" lon="12.4966768"><ele>1130.0</ele><time>2026-04-24T17:05:20.065Z</time></trkpt><trkpt lat="46.592518" lon="12.4965874"><ele>1133.0</ele><time>2026-04-24T17:05:22.064Z</time></trkpt><trkpt lat="46.5925298" lon="12.4964953"><ele>1136.0</ele><time>2026-04-24T17:05:28.06Z</time></trkpt><trkpt lat="46.5925863" lon="12.496327"><ele>1139.0</ele><time>2026-04-24T17:05:33.067Z</time></trkpt><trkpt lat="46.5926489" lon="12.4961536"><ele>1140.6666666666667</ele><time>2026-04-24T17:05:34.063Z</time></trkpt><trkpt lat="46.5927025" lon="12.4960014"><ele>1142.3333333333335</ele><time>2026-04-24T17:05:35.06Z</time></trkpt><trkpt lat="46.5927328" lon="12.4959203"><ele>1144.0</ele><time>2026-04-24T17:05:37.057Z</time></trkpt><trkpt lat="46.5927167" lon="12.4958149"><ele>1145.6666666666667</ele><time>2026-04-24T17:05:39.058Z</time></trkpt><trkpt lat="46.5926821" lon="12.4957015"><ele>1147.3333333333333</ele><time>2026-04-24T17:05:42.058Z</time></trkpt><trkpt lat="46.5926206" lon="12.4956008"><ele>1149.0</ele><time>2026-04-24T17:05:45.062Z</time></trkpt><trkpt lat="46.5925753" lon="12.4955361"><ele>1149.0</ele><time>2026-04-24T17:05:47.059Z</time></trkpt><trkpt lat="46.5925225" lon="12.4954285"><ele>1149.0</ele><time>2026-04-24T17:05:50.057Z</time></trkpt><trkpt lat="46.5925066" lon="12.4953142"><ele>1149.0</ele><time>2026-04-24T17:05:53.06Z</time></trkpt><trkpt lat="46.592508" lon="12.4952073"><ele>1149.0</ele><time>2026-04-24T17:05:56.076Z</time></trkpt><trkpt lat="46.5925319" lon="12.4950261"><ele>1149.0</ele><time>2026-04-24T17:06:00.064Z</time></trkpt><trkpt lat="46.5925702" lon="12.4949212"><ele>1149.0</ele><time>2026-04-24T17:06:02.061Z</time></trkpt><trkpt lat="46.592601" lon="12.4948212"><ele>1149.0</ele><time>2026-04-24T17:06:04.064Z</time></trkpt><trkpt lat="46.5926193" lon="12.494732"><ele>1149.0</ele><time>2026-04-24T17:06:06.061Z</time></trkpt><trkpt lat="46.5926331" lon="12.4946391"><ele>1149.0</ele><time>2026-04-24T17:06:08.081Z</time></trkpt><trkpt lat="46.5926403" lon="12.4945438"><ele>1149.0</ele><time>2026-04-24T17:06:10.095Z</time></trkpt><trkpt lat="46.5926472" lon="12.4944118"><ele>1149.0</ele><time>2026-04-24T17:06:13.058Z</time></trkpt><trkpt lat="46.5926486" lon="12.4943"><ele>1149.0</ele><time>2026-04-24T17:06:16.048Z</time></trkpt><trkpt lat="46.59265" lon="12.4941939"><ele>1149.0</ele><time>2026-04-24T17:06:19.058Z</time></trkpt><trkpt lat="46.5926493" lon="12.4940728"><ele>1149.0</ele><time>2026-04-24T17:06:22.086Z</time></trkpt><trkpt lat="46.5926468" lon="12.4939498"><ele>1149.0</ele><time>2026-04-24T17:06:25.08Z</time></trkpt><trkpt lat="46.5926233" lon="12.4938297"><ele>1149.0</ele><time>2026-04-24T17:06:28.06Z</time></trkpt><trkpt lat="46.5925906" lon="12.4937269"><ele>1149.0</ele><time>2026-04-24T17:06:31.086Z</time></trkpt><trkpt lat="46.5925596" lon="12.4936305"><ele>1149.0</ele><time>2026-04-24T17:06:34.059Z</time></trkpt><trkpt lat="46.5925382" lon="12.4935409"><ele>1148.7142857142858</ele><time>2026-04-24T17:06:37.054Z</time></trkpt><trkpt lat="46.5925337" lon="12.4934186"><ele>1148.4285714285713</ele><time>2026-04-24T17:06:41.073Z</time></trkpt><trkpt lat="46.592549" lon="12.4933108"><ele>1148.142857142857</ele><time>2026-04-24T17:06:44.06Z</time></trkpt><trkpt lat="46.5925794" lon="12.4932206"><ele>1147.857142857143</ele><time>2026-04-24T17:06:47.072Z</time></trkpt><trkpt lat="46.5925979" lon="12.4931252"><ele>1147.5714285714287</ele><time>2026-04-24T17:06:50.059Z</time></trkpt><trkpt lat="46.5926091" lon="12.493024"><ele>1147.2857142857142</ele><time>2026-04-24T17:06:53.057Z</time></trkpt><trkpt lat="46.5926019" lon="12.4929112"><ele>1147.0</ele><time>2026-04-24T17:06:56.062Z</time></trkpt><trkpt lat="46.5925859" lon="12.4928103"><ele>1148.2857142857142</ele><time>2026-04-24T17:06:59.057Z</time></trkpt><trkpt lat="46.5925696" lon="12.4927101"><ele>1149.5714285714287</ele><time>2026-04-24T17:07:02.053Z</time></trkpt><trkpt lat="46.5925582" lon="12.492598"><ele>1150.857142857143</ele><time>2026-04-24T17:07:05.065Z</time></trkpt><trkpt lat="46.5925498" lon="12.4924863"><ele>1152.142857142857</ele><time>2026-04-24T17:07:08.056Z</time></trkpt><trkpt lat="46.5925555" lon="12.4923918"><ele>1153.4285714285713</ele><time>2026-04-24T17:07:11.061Z</time></trkpt><trkpt lat="46.5925595" lon="12.4922885"><ele>1154.7142857142858</ele><time>2026-04-24T17:07:14.095Z</time></trkpt><trkpt lat="46.5925681" lon="12.4921868"><ele>1156.0</ele><time>2026-04-24T17:07:17.06Z</time></trkpt><trkpt lat="46.5925951" lon="12.4920843"><ele>1156.0</ele><time>2026-04-24T17:07:21.054Z</time></trkpt><trkpt lat="46.5926397" lon="12.4919869"><ele>1156.0</ele><time>2026-04-24T17:07:25.062Z</time></trkpt><trkpt lat="46.5926577" lon="12.4918713"><ele>1156.0</ele><time>2026-04-24T17:07:29.051Z</time></trkpt><trkpt lat="46.5926589" lon="12.4917722"><ele>1156.0</ele><time>2026-04-24T17:07:33.056Z</time></trkpt><trkpt lat="46.5926471" lon="12.4916539"><ele>1156.0</ele><time>2026-04-24T17:07:38.057Z</time></trkpt><trkpt lat="46.592615" lon="12.4915618"><ele>1156.0</ele><time>2026-04-24T17:07:40.088Z</time></trkpt><trkpt lat="46.592576" lon="12.491477"><ele>1156.0</ele><time>2026-04-24T17:07:43.087Z</time></trkpt><trkpt lat="46.5925271" lon="12.4913887"><ele>1156.0</ele><time>2026-04-24T17:07:46.082Z</time></trkpt><trkpt lat="46.5924707" lon="12.4913067"><ele>1156.0</ele><time>2026-04-24T17:07:49.055Z</time></trkpt><trkpt lat="46.5924146" lon="12.4912362"><ele>1156.0</ele><time>2026-04-24T17:07:52.062Z</time></trkpt><trkpt lat="46.5923562" lon="12.4911467"><ele>1156.0</ele><time>2026-04-24T17:07:56.056Z</time></trkpt><trkpt lat="46.5923178" lon="12.4910416"><ele>1156.0</ele><time>2026-04-24T17:07:59.059Z</time></trkpt><trkpt lat="46.5922956" lon="12.4909283"><ele>1156.0</ele><time>2026-04-24T17:08:02.048Z</time></trkpt><trkpt lat="46.5922646" lon="12.4907869"><ele>1156.0</ele><time>2026-04-24T17:08:06.057Z</time></trkpt><trkpt lat="46.5922545" lon="12.4906824"><ele>1156.0</ele><time>2026-04-24T17:08:09.091Z</time></trkpt><trkpt lat="46.5922479" lon="12.4905602"><ele>1156.0</ele><time>2026-04-24T17:08:12.081Z</time></trkpt><trkpt lat="46.5922542" lon="12.4904606"><ele>1156.0</ele><time>2026-04-24T17:08:15.054Z</time></trkpt><trkpt lat="46.5922498" lon="12.4903458"><ele>1156.0</ele><time>2026-04-24T17:08:18.057Z</time></trkpt><trkpt lat="46.5922197" lon="12.4902569"><ele>1158.0</ele><time>2026-04-24T17:08:23.085Z</time></trkpt><trkpt lat="46.5922185" lon="12.4901649"><ele>1160.0</ele><time>2026-04-24T17:08:27.057Z</time></trkpt><trkpt lat="46.5922595" lon="12.4900819"><ele>1162.0</ele><time>2026-04-24T17:08:29.984Z</time></trkpt><trkpt lat="46.5923197" lon="12.4900036"><ele>1164.0</ele><time>2026-04-24T17:08:33.065Z</time></trkpt><trkpt lat="46.5923869" lon="12.4899546"><ele>1166.0</ele><time>2026-04-24T17:08:36.058Z</time></trkpt><trkpt lat="46.5924442" lon="12.4899"><ele>1168.0</ele><time>2026-04-24T17:08:39.055Z</time></trkpt><trkpt lat="46.5924946" lon="12.4898343"><ele>1170.0</ele><time>2026-04-24T17:08:42.066Z</time></trkpt><trkpt lat="46.5925313" lon="12.4897515"><ele>1170.0</ele><time>2026-04-24T17:08:46.062Z</time></trkpt><trkpt lat="46.5925436" lon="12.4896052"><ele>1170.0</ele><time>2026-04-24T17:08:53.076Z</time></trkpt><trkpt lat="46.5925541" lon="12.4895089"><ele>1170.0</ele><time>2026-04-24T17:08:55.057Z</time></trkpt><trkpt lat="46.5925717" lon="12.4894043"><ele>1170.0</ele><time>2026-04-24T17:08:58.06Z</time></trkpt><trkpt lat="46.5925824" lon="12.4892912"><ele>1170.0</ele><time>2026-04-24T17:09:04.059Z</time></trkpt><trkpt lat="46.5926104" lon="12.489204"><ele>1170.0</ele><time>2026-04-24T17:09:09.054Z</time></trkpt><trkpt lat="46.5926309" lon="12.4891084"><ele>1171.0</ele><time>2026-04-24T17:09:13.079Z</time></trkpt><trkpt lat="46.592658" lon="12.4890237"><ele>1172.0</ele><time>2026-04-24T17:09:16.06Z</time></trkpt><trkpt lat="46.5926748" lon="12.4889318"><ele>1173.0</ele><time>2026-04-24T17:09:18.056Z</time></trkpt><trkpt lat="46.5926869" lon="12.4888334"><ele>1174.0</ele><time>2026-04-24T17:09:20.087Z</time></trkpt><trkpt lat="46.5927196" lon="12.4887183"><ele>1175.0</ele><time>2026-04-24T17:09:23.07Z</time></trkpt><trkpt lat="46.5927716" lon="12.4886415"><ele>1176.0</ele><time>2026-04-24T17:09:25.006Z</time></trkpt><trkpt lat="46.5928115" lon="12.4885694"><ele>1177.0</ele><time>2026-04-24T17:09:27.057Z</time></trkpt><trkpt lat="46.592851" lon="12.4884913"><ele>1177.0</ele><time>2026-04-24T17:09:29.991Z</time></trkpt><trkpt lat="46.5928838" lon="12.4883993"><ele>1177.0</ele><time>2026-04-24T17:09:33.041Z</time></trkpt><trkpt lat="46.5929199" lon="12.4883075"><ele>1177.0</ele><time>2026-04-24T17:09:36.059Z</time></trkpt><trkpt lat="46.592958" lon="12.4882054"><ele>1177.0</ele><time>2026-04-24T17:09:39.059Z</time></trkpt><trkpt lat="46.5930035" lon="12.4881055"><ele>1177.0</ele><time>2026-04-24T17:09:42.059Z</time></trkpt><trkpt lat="46.5930439" lon="12.4880125"><ele>1177.0</ele><time>2026-04-24T17:09:44.961Z</time></trkpt><trkpt lat="46.5930828" lon="12.4879141"><ele>1179.3333333333333</ele><time>2026-04-24T17:09:48.025Z</time></trkpt><trkpt lat="46.5931282" lon="12.4878215"><ele>1181.6666666666665</ele><time>2026-04-24T17:09:51.088Z</time></trkpt><trkpt lat="46.5931642" lon="12.4877243"><ele>1184.0</ele><time>2026-04-24T17:09:54.058Z</time></trkpt><trkpt lat="46.5931976" lon="12.4876221"><ele>1186.3333333333333</ele><time>2026-04-24T17:09:57.061Z</time></trkpt><trkpt lat="46.5932536" lon="12.487525"><ele>1188.6666666666667</ele><time>2026-04-24T17:10:00.06Z</time></trkpt><trkpt lat="46.5933126" lon="12.4874443"><ele>1191.0</ele><time>2026-04-24T17:10:03.092Z</time></trkpt><trkpt lat="46.5933616" lon="12.48736"><ele>1191.0</ele><time>2026-04-24T17:10:06.094Z</time></trkpt><trkpt lat="46.593424" lon="12.4872784"><ele>1191.0</ele><time>2026-04-24T17:10:09.056Z</time></trkpt><trkpt lat="46.5934929" lon="12.4872205"><ele>1191.0</ele><time>2026-04-24T17:10:12.058Z</time></trkpt><trkpt lat="46.5935572" lon="12.4872023"><ele>1191.0</ele><time>2026-04-24T17:10:16.058Z</time></trkpt><trkpt lat="46.5936286" lon="12.4871939"><ele>1191.0</ele><time>2026-04-24T17:10:19.056Z</time></trkpt><trkpt lat="46.5936942" lon="12.4871816"><ele>1191.0</ele><time>2026-04-24T17:10:30.059Z</time></trkpt><trkpt lat="46.5938026" lon="12.4870964"><ele>1191.6666666666667</ele><time>2026-04-24T17:10:31.059Z</time></trkpt><trkpt lat="46.5938941" lon="12.4870329"><ele>1192.3333333333333</ele><time>2026-04-24T17:10:32.055Z</time></trkpt><trkpt lat="46.5939609" lon="12.4869467"><ele>1193.0</ele><time>2026-04-24T17:10:33.059Z</time></trkpt><trkpt lat="46.5939963" lon="12.4868637"><ele>1193.6666666666665</ele><time>2026-04-24T17:10:35.117Z</time></trkpt><trkpt lat="46.5940346" lon="12.4867493"><ele>1194.3333333333333</ele><time>2026-04-24T17:10:38.059Z</time></trkpt><trkpt lat="46.5940842" lon="12.4866573"><ele>1195.0</ele><time>2026-04-24T17:10:41.059Z</time></trkpt><trkpt lat="46.594131" lon="12.4865604"><ele>1195.0</ele><time>2026-04-24T17:10:44.058Z</time></trkpt><trkpt lat="46.5941939" lon="12.4864808"><ele>1195.0</ele><time>2026-04-24T17:10:47.059Z</time></trkpt><trkpt lat="46.5942571" lon="12.4864589"><ele>1195.0</ele><time>2026-04-24T17:10:50.058Z</time></trkpt><trkpt lat="46.5943237" lon="12.4864734"><ele>1195.0</ele><time>2026-04-24T17:10:53.059Z</time></trkpt><trkpt lat="46.5944003" lon="12.486527"><ele>1195.0</ele><time>2026-04-24T17:10:56.059Z</time></trkpt><trkpt lat="46.5944702" lon="12.4866033"><ele>1195.0</ele><time>2026-04-24T17:10:59.049Z</time></trkpt><trkpt lat="46.594523" lon="12.4866635"><ele>1194.6666666666665</ele><time>2026-04-24T17:11:01.052Z</time></trkpt><trkpt lat="46.5945759" lon="12.4867361"><ele>1194.3333333333333</ele><time>2026-04-24T17:11:03.085Z</time></trkpt><trkpt lat="46.594618" lon="12.4868105"><ele>1194.0</ele><time>2026-04-24T17:11:05.064Z</time></trkpt><trkpt lat="46.5946561" lon="12.4868842"><ele>1193.6666666666667</ele><time>2026-04-24T17:11:07.059Z</time></trkpt><trkpt lat="46.5947037" lon="12.4869837"><ele>1193.3333333333335</ele><time>2026-04-24T17:11:10.089Z</time></trkpt><trkpt lat="46.5947541" lon="12.4870743"><ele>1193.0</ele><time>2026-04-24T17:11:13.082Z</time></trkpt><trkpt lat="46.5948116" lon="12.4871984"><ele>1191.5</ele><time>2026-04-24T17:11:16.059Z</time></trkpt><trkpt lat="46.5948574" lon="12.487281"><ele>1190.0</ele><time>2026-04-24T17:11:18.065Z</time></trkpt><trkpt lat="46.5949078" lon="12.4873458"><ele>1188.5</ele><time>2026-04-24T17:11:20.077Z</time></trkpt><trkpt lat="46.5949697" lon="12.4874062"><ele>1187.0</ele><time>2026-04-24T17:11:22.05Z</time></trkpt><trkpt lat="46.5950258" lon="12.487464"><ele>1185.5</ele><time>2026-04-24T17:11:24.061Z</time></trkpt><trkpt lat="46.5951073" lon="12.4875089"><ele>1184.0</ele><time>2026-04-24T17:11:27.062Z</time></trkpt><trkpt lat="46.595189" lon="12.4875177"><ele>1184.0</ele><time>2026-04-24T17:11:30.025Z</time></trkpt><trkpt lat="46.5952718" lon="12.4875368"><ele>1184.0</ele><time>2026-04-24T17:11:33.07Z</time></trkpt><trkpt lat="46.5953551" lon="12.4875459"><ele>1184.0</ele><time>2026-04-24T17:11:36.059Z</time></trkpt><trkpt lat="46.5954337" lon="12.4875203"><ele>1184.0</ele><time>2026-04-24T17:11:39.059Z</time></trkpt><trkpt lat="46.5954925" lon="12.4874823"><ele>1184.0</ele><time>2026-04-24T17:11:41.058Z</time></trkpt><trkpt lat="46.5955574" lon="12.4874167"><ele>1184.0</ele><time>2026-04-24T17:11:44.059Z</time></trkpt><trkpt lat="46.5956164" lon="12.4873636"><ele>1183.5</ele><time>2026-04-24T17:11:47.079Z</time></trkpt><trkpt lat="46.5956769" lon="12.4873089"><ele>1183.0</ele><time>2026-04-24T17:11:50.06Z</time></trkpt><trkpt lat="46.5957287" lon="12.4872405"><ele>1182.5</ele><time>2026-04-24T17:11:52.965Z</time></trkpt><trkpt lat="46.5957672" lon="12.4871403"><ele>1182.0</ele><time>2026-04-24T17:11:56.049Z</time></trkpt><trkpt lat="46.5958013" lon="12.4870287"><ele>1181.5</ele><time>2026-04-24T17:11:59.061Z</time></trkpt><trkpt lat="46.5958381" lon="12.4869238"><ele>1181.0</ele><time>2026-04-24T17:12:02.051Z</time></trkpt><trkpt lat="46.5958633" lon="12.4868321"><ele>1183.0</ele><time>2026-04-24T17:12:05.079Z</time></trkpt><trkpt lat="46.5959141" lon="12.4867188"><ele>1185.0</ele><time>2026-04-24T17:12:09.059Z</time></trkpt><trkpt lat="46.5959622" lon="12.4866253"><ele>1187.0</ele><time>2026-04-24T17:12:12.058Z</time></trkpt><trkpt lat="46.5960071" lon="12.4865572"><ele>1189.0</ele><time>2026-04-24T17:12:14.06Z</time></trkpt><trkpt lat="46.5960538" lon="12.4864957"><ele>1191.0</ele><time>2026-04-24T17:12:16.085Z</time></trkpt><trkpt lat="46.59612" lon="12.486427"><ele>1193.0</ele><time>2026-04-24T17:12:19.064Z</time></trkpt><trkpt lat="46.5961987" lon="12.4863962"><ele>1194.0</ele><time>2026-04-24T17:12:23.064Z</time></trkpt><trkpt lat="46.5962764" lon="12.4863659"><ele>1195.0</ele><time>2026-04-24T17:12:27.087Z</time></trkpt><trkpt lat="46.5963638" lon="12.486329"><ele>1196.0</ele><time>2026-04-24T17:12:31.06Z</time></trkpt><trkpt lat="46.59644" lon="12.486302"><ele>1197.0</ele><time>2026-04-24T17:12:34.063Z</time></trkpt><trkpt lat="46.5965073" lon="12.4862616"><ele>1198.0</ele><time>2026-04-24T17:12:37.06Z</time></trkpt><trkpt lat="46.5965674" lon="12.4862118"><ele>1199.0</ele><time>2026-04-24T17:12:40.093Z</time></trkpt><trkpt lat="46.596628" lon="12.4861749"><ele>1199.0</ele><time>2026-04-24T17:12:43.058Z</time></trkpt><trkpt lat="46.5967029" lon="12.4861323"><ele>1199.0</ele><time>2026-04-24T17:12:46.079Z</time></trkpt><trkpt lat="46.5967639" lon="12.4860974"><ele>1199.0</ele><time>2026-04-24T17:12:49.054Z</time></trkpt><trkpt lat="46.5968214" lon="12.4860477"><ele>1199.0</ele><time>2026-04-24T17:12:52.056Z</time></trkpt><trkpt lat="46.5968884" lon="12.4859723"><ele>1199.0</ele><time>2026-04-24T17:12:56.055Z</time></trkpt><trkpt lat="46.5969431" lon="12.4858932"><ele>1199.0</ele><time>2026-04-24T17:13:00.056Z</time></trkpt><trkpt lat="46.5969972" lon="12.4858188"><ele>1199.0</ele><time>2026-04-24T17:13:03.059Z</time></trkpt><trkpt lat="46.5970601" lon="12.4857215"><ele>1199.0</ele><time>2026-04-24T17:13:06.053Z</time></trkpt><trkpt lat="46.5971205" lon="12.4856375"><ele>1199.0</ele><time>2026-04-24T17:13:09.056Z</time></trkpt><trkpt lat="46.5971877" lon="12.485553"><ele>1199.0</ele><time>2026-04-24T17:13:12.087Z</time></trkpt><trkpt lat="46.5972554" lon="12.485468"><ele>1199.0</ele><time>2026-04-24T17:13:15.059Z</time></trkpt><trkpt lat="46.5973138" lon="12.4853842"><ele>1199.0</ele><time>2026-04-24T17:13:18.089Z</time></trkpt><trkpt lat="46.5973661" lon="12.4852894"><ele>1199.0</ele><time>2026-04-24T17:13:21.053Z</time></trkpt><trkpt lat="46.5974252" lon="12.4851972"><ele>1200.5</ele><time>2026-04-24T17:13:24.084Z</time></trkpt><trkpt lat="46.5974742" lon="12.4851245"><ele>1202.0</ele><time>2026-04-24T17:13:27.063Z</time></trkpt><trkpt lat="46.5975454" lon="12.4850777"><ele>1203.5</ele><time>2026-04-24T17:13:30.066Z</time></trkpt><trkpt lat="46.5976207" lon="12.4850621"><ele>1205.0</ele><time>2026-04-24T17:13:33.059Z</time></trkpt><trkpt lat="46.5976966" lon="12.4850336"><ele>1206.5</ele><time>2026-04-24T17:13:37.06Z</time></trkpt><trkpt lat="46.5977408" lon="12.4849375"><ele>1208.0</ele><time>2026-04-24T17:13:41.058Z</time></trkpt><trkpt lat="46.5977615" lon="12.4848296"><ele>1208.0000000000002</ele><time>2026-04-24T17:13:44.007Z</time></trkpt><trkpt lat="46.5977648" lon="12.4847219"><ele>1208.0</ele><time>2026-04-24T17:13:47.081Z</time></trkpt><trkpt lat="46.5977598" lon="12.4846191"><ele>1208.0</ele><time>2026-04-24T17:13:50.059Z</time></trkpt><trkpt lat="46.597766" lon="12.4845252"><ele>1208.0</ele><time>2026-04-24T17:13:53.053Z</time></trkpt><trkpt lat="46.5977905" lon="12.4844367"><ele>1208.0</ele><time>2026-04-24T17:13:56.057Z</time></trkpt><trkpt lat="46.597826" lon="12.4843314"><ele>1208.0000000000002</ele><time>2026-04-24T17:13:59.057Z</time></trkpt><trkpt lat="46.5978573" lon="12.4842231"><ele>1208.0</ele><time>2026-04-24T17:14:02.059Z</time></trkpt><trkpt lat="46.5978893" lon="12.484121"><ele>1207.8333333333335</ele><time>2026-04-24T17:14:05.059Z</time></trkpt><trkpt lat="46.5979155" lon="12.4840146"><ele>1207.6666666666667</ele><time>2026-04-24T17:14:08.058Z</time></trkpt><trkpt lat="46.5979195" lon="12.4838912"><ele>1207.5</ele><time>2026-04-24T17:14:11.059Z</time></trkpt><trkpt lat="46.5979151" lon="12.4837992"><ele>1207.3333333333333</ele><time>2026-04-24T17:14:13.058Z</time></trkpt><trkpt lat="46.5978956" lon="12.4836611"><ele>1207.1666666666665</ele><time>2026-04-24T17:14:16.06Z</time></trkpt><trkpt lat="46.5978796" lon="12.4835297"><ele>1207.0</ele><time>2026-04-24T17:14:19.058Z</time></trkpt><trkpt lat="46.5978485" lon="12.4834067"><ele>1207.0</ele><time>2026-04-24T17:14:22.059Z</time></trkpt><trkpt lat="46.597808" lon="12.4832899"><ele>1207.0</ele><time>2026-04-24T17:14:25.06Z</time></trkpt><trkpt lat="46.5977996" lon="12.4831644"><ele>1207.0</ele><time>2026-04-24T17:14:28.059Z</time></trkpt><trkpt lat="46.5978153" lon="12.4830368"><ele>1207.0</ele><time>2026-04-24T17:14:31.198Z</time></trkpt><trkpt lat="46.5978409" lon="12.4829199"><ele>1207.0</ele><time>2026-04-24T17:14:34.089Z</time></trkpt><trkpt lat="46.5978646" lon="12.4828033"><ele>1207.0</ele><time>2026-04-24T17:14:37.059Z</time></trkpt><trkpt lat="46.5978938" lon="12.4827047"><ele>1207.0</ele><time>2026-04-24T17:14:39.064Z</time></trkpt><trkpt lat="46.5979255" lon="12.4826174"><ele>1207.0</ele><time>2026-04-24T17:14:41.087Z</time></trkpt><trkpt lat="46.5979929" lon="12.4825341"><ele>1207.0</ele><time>2026-04-24T17:14:44.057Z</time></trkpt><trkpt lat="46.5980729" lon="12.4824764"><ele>1207.0</ele><time>2026-04-24T17:14:47.006Z</time></trkpt><trkpt lat="46.598123" lon="12.4823783"><ele>1207.0</ele><time>2026-04-24T17:14:50.001Z</time></trkpt><trkpt lat="46.5981772" lon="12.4823114"><ele>1207.0</ele><time>2026-04-24T17:14:53.09Z</time></trkpt><trkpt lat="46.5982475" lon="12.4823347"><ele>1207.0</ele><time>2026-04-24T17:14:55.063Z</time></trkpt><trkpt lat="46.5983259" lon="12.4823907"><ele>1207.0</ele><time>2026-04-24T17:14:57.056Z</time></trkpt><trkpt lat="46.5983923" lon="12.4824532"><ele>1207.0</ele><time>2026-04-24T17:14:59.06Z</time></trkpt><trkpt lat="46.5984574" lon="12.4825274"><ele>1207.0</ele><time>2026-04-24T17:15:01.062Z</time></trkpt><trkpt lat="46.5985231" lon="12.4825831"><ele>1207.0</ele><time>2026-04-24T17:15:03.06Z</time></trkpt><trkpt lat="46.5985842" lon="12.4826296"><ele>1207.0</ele><time>2026-04-24T17:15:05.061Z</time></trkpt><trkpt lat="46.5986595" lon="12.4826947"><ele>1207.1666666666665</ele><time>2026-04-24T17:15:08.056Z</time></trkpt><trkpt lat="46.5987321" lon="12.4827677"><ele>1207.3333333333333</ele><time>2026-04-24T17:15:11.088Z</time></trkpt><trkpt lat="46.5988053" lon="12.4828497"><ele>1207.5</ele><time>2026-04-24T17:15:14.054Z</time></trkpt><trkpt lat="46.5988369" lon="12.4829361"><ele>1207.6666666666667</ele><time>2026-04-24T17:15:16.088Z</time></trkpt><trkpt lat="46.598871" lon="12.4830604"><ele>1207.8333333333335</ele><time>2026-04-24T17:15:19.057Z</time></trkpt><trkpt lat="46.5989301" lon="12.4831614"><ele>1208.0</ele><time>2026-04-24T17:15:22.056Z</time></trkpt><trkpt lat="46.5990086" lon="12.4832128"><ele>1208.0000000000002</ele><time>2026-04-24T17:15:25.056Z</time></trkpt><trkpt lat="46.599097" lon="12.4832455"><ele>1208.0</ele><time>2026-04-24T17:15:28.09Z</time></trkpt><trkpt lat="46.5991554" lon="12.4832853"><ele>1208.0</ele><time>2026-04-24T17:15:30.064Z</time></trkpt><trkpt lat="46.5992196" lon="12.4833362"><ele>1208.0</ele><time>2026-04-24T17:15:32.062Z</time></trkpt><trkpt lat="46.599288" lon="12.4833793"><ele>1208.0</ele><time>2026-04-24T17:15:34.051Z</time></trkpt><trkpt lat="46.5993518" lon="12.4834201"><ele>1208.0000000000002</ele><time>2026-04-24T17:15:36.06Z</time></trkpt><trkpt lat="46.5994104" lon="12.4834763"><ele>1208.0</ele><time>2026-04-24T17:15:38.059Z</time></trkpt><trkpt lat="46.5994718" lon="12.4835238"><ele>1207.2857142857144</ele><time>2026-04-24T17:15:40.061Z</time></trkpt><trkpt lat="46.5995347" lon="12.4835643"><ele>1206.5714285714287</ele><time>2026-04-24T17:15:42.055Z</time></trkpt><trkpt lat="46.5996009" lon="12.483595"><ele>1205.857142857143</ele><time>2026-04-24T17:15:44.061Z</time></trkpt><trkpt lat="46.5996689" lon="12.4836309"><ele>1205.1428571428573</ele><time>2026-04-24T17:15:46.055Z</time></trkpt><trkpt lat="46.5997405" lon="12.4836558"><ele>1204.4285714285716</ele><time>2026-04-24T17:15:48.058Z</time></trkpt><trkpt lat="46.5998121" lon="12.4836724"><ele>1203.7142857142858</ele><time>2026-04-24T17:15:50.059Z</time></trkpt><trkpt lat="46.5998816" lon="12.4836808"><ele>1203.0</ele><time>2026-04-24T17:15:52.064Z</time></trkpt><trkpt lat="46.5999529" lon="12.4836821"><ele>1203.0</ele><time>2026-04-24T17:15:54.062Z</time></trkpt><trkpt lat="46.6000255" lon="12.4836776"><ele>1203.0</ele><time>2026-04-24T17:15:56.059Z</time></trkpt><trkpt lat="46.6000954" lon="12.4836746"><ele>1203.0</ele><time>2026-04-24T17:15:58.063Z</time></trkpt><trkpt lat="46.6001625" lon="12.4836809"><ele>1203.0</ele><time>2026-04-24T17:16:00.05Z</time></trkpt><trkpt lat="46.6002296" lon="12.4836954"><ele>1203.0</ele><time>2026-04-24T17:16:02.021Z</time></trkpt><trkpt lat="46.6002969" lon="12.4837086"><ele>1203.0</ele><time>2026-04-24T17:16:04.062Z</time></trkpt><trkpt lat="46.6003641" lon="12.4837144"><ele>1203.0</ele><time>2026-04-24T17:16:06.033Z</time></trkpt><trkpt lat="46.6004341" lon="12.4837165"><ele>1203.142857142857</ele><time>2026-04-24T17:16:08.058Z</time></trkpt><trkpt lat="46.6005029" lon="12.4837195"><ele>1203.2857142857142</ele><time>2026-04-24T17:16:10.062Z</time></trkpt><trkpt lat="46.6005703" lon="12.4837167"><ele>1203.4285714285716</ele><time>2026-04-24T17:16:12.044Z</time></trkpt><trkpt lat="46.6006384" lon="12.4837122"><ele>1203.5714285714284</ele><time>2026-04-24T17:16:14.054Z</time></trkpt><trkpt lat="46.6007043" lon="12.4836905"><ele>1203.7142857142858</ele><time>2026-04-24T17:16:16.078Z</time></trkpt><trkpt lat="46.6007625" lon="12.4836398"><ele>1203.857142857143</ele><time>2026-04-24T17:16:18.083Z</time></trkpt><trkpt lat="46.6008047" lon="12.4835435"><ele>1204.0</ele><time>2026-04-24T17:16:20.074Z</time></trkpt><trkpt lat="46.6008626" lon="12.4834772"><ele>1204.0</ele><time>2026-04-24T17:16:22.059Z</time></trkpt><trkpt lat="46.6007772" lon="12.4833868"><ele>1204.0</ele><time>2026-04-24T17:16:23.058Z</time></trkpt><trkpt lat="46.6007459" lon="12.4833053"><ele>1204.0</ele><time>2026-04-24T17:16:25.069Z</time></trkpt><trkpt lat="46.6007593" lon="12.4831622"><ele>1204.0</ele><time>2026-04-24T17:16:27.057Z</time></trkpt><trkpt lat="46.6007939" lon="12.4830685"><ele>1204.0</ele><time>2026-04-24T17:16:29.056Z</time></trkpt><trkpt lat="46.6008411" lon="12.4829986"><ele>1204.0</ele><time>2026-04-24T17:16:31.058Z</time></trkpt><trkpt lat="46.6009006" lon="12.482952"><ele>1205.0</ele><time>2026-04-24T17:16:33.066Z</time></trkpt><trkpt lat="46.6009579" lon="12.4829127"><ele>1206.0</ele><time>2026-04-24T17:16:35.058Z</time></trkpt><trkpt lat="46.6010334" lon="12.4828537"><ele>1207.0</ele><time>2026-04-24T17:16:38.055Z</time></trkpt><trkpt lat="46.6010965" lon="12.4827755"><ele>1208.0</ele><time>2026-04-24T17:16:41.058Z</time></trkpt><trkpt lat="46.6011464" lon="12.4826748"><ele>1209.0</ele><time>2026-04-24T17:16:44.058Z</time></trkpt><trkpt lat="46.6012048" lon="12.4825688"><ele>1210.0</ele><time>2026-04-24T17:16:47.059Z</time></trkpt><trkpt lat="46.6012404" lon="12.4824924"><ele>1210.0</ele><time>2026-04-24T17:16:49.059Z</time></trkpt><trkpt lat="46.6013011" lon="12.4823986"><ele>1210.0</ele><time>2026-04-24T17:16:52.063Z</time></trkpt><trkpt lat="46.6013633" lon="12.4822927"><ele>1210.0</ele><time>2026-04-24T17:16:55.086Z</time></trkpt><trkpt lat="46.6013966" lon="12.4822129"><ele>1210.0</ele><time>2026-04-24T17:16:57.026Z</time></trkpt><trkpt lat="46.6014292" lon="12.4821303"><ele>1210.0</ele><time>2026-04-24T17:16:59.059Z</time></trkpt><trkpt lat="46.6014694" lon="12.4820142"><ele>1210.0</ele><time>2026-04-24T17:17:02.058Z</time></trkpt><trkpt lat="46.6015134" lon="12.4819022"><ele>1210.0</ele><time>2026-04-24T17:17:05.07Z</time></trkpt><trkpt lat="46.6015776" lon="12.4818231"><ele>1210.0</ele><time>2026-04-24T17:17:07.983Z</time></trkpt><trkpt lat="46.6016546" lon="12.4817471"><ele>1210.0</ele><time>2026-04-24T17:17:11.058Z</time></trkpt><trkpt lat="46.6017223" lon="12.4816588"><ele>1210.0</ele><time>2026-04-24T17:17:14.059Z</time></trkpt><trkpt lat="46.6017785" lon="12.4815526"><ele>1210.0</ele><time>2026-04-24T17:17:17.058Z</time></trkpt><trkpt lat="46.6018228" lon="12.481438"><ele>1210.0</ele><time>2026-04-24T17:17:20.045Z</time></trkpt><trkpt lat="46.6018415" lon="12.4813073"><ele>1210.0</ele><time>2026-04-24T17:17:23.059Z</time></trkpt><trkpt lat="46.6018489" lon="12.4812149"><ele>1210.0</ele><time>2026-04-24T17:17:25.059Z</time></trkpt><trkpt lat="46.601851" lon="12.4810794"><ele>1210.0</ele><time>2026-04-24T17:17:28.059Z</time></trkpt><trkpt lat="46.6018493" lon="12.4809878"><ele>1210.0</ele><time>2026-04-24T17:17:30.058Z</time></trkpt><trkpt lat="46.6018397" lon="12.4808507"><ele>1210.0</ele><time>2026-04-24T17:17:33.078Z</time></trkpt><trkpt lat="46.6018245" lon="12.4807594"><ele>1210.5</ele><time>2026-04-24T17:17:35.058Z</time></trkpt><trkpt lat="46.6018056" lon="12.4806681"><ele>1211.0</ele><time>2026-04-24T17:17:37.063Z</time></trkpt><trkpt lat="46.6017823" lon="12.4805743"><ele>1211.5</ele><time>2026-04-24T17:17:39.058Z</time></trkpt><trkpt lat="46.6017529" lon="12.4804861"><ele>1212.0</ele><time>2026-04-24T17:17:41.059Z</time></trkpt><trkpt lat="46.6016986" lon="12.4803716"><ele>1212.5</ele><time>2026-04-24T17:17:44.086Z</time></trkpt><trkpt lat="46.6016543" lon="12.4802494"><ele>1213.0</ele><time>2026-04-24T17:17:47.06Z</time></trkpt><trkpt lat="46.6016321" lon="12.4801616"><ele>1213.5</ele><time>2026-04-24T17:17:49.058Z</time></trkpt><trkpt lat="46.6016112" lon="12.4800709"><ele>1214.0</ele><time>2026-04-24T17:17:51.058Z</time></trkpt><trkpt lat="46.6016112" lon="12.479931"><ele>1214.5</ele><time>2026-04-24T17:17:54.049Z</time></trkpt><trkpt lat="46.6016423" lon="12.4798188"><ele>1215.0</ele><time>2026-04-24T17:17:56.085Z</time></trkpt><trkpt lat="46.6016713" lon="12.4797183"><ele>1215.5</ele><time>2026-04-24T17:17:58.088Z</time></trkpt><trkpt lat="46.60171" lon="12.4796292"><ele>1216.0</ele><time>2026-04-24T17:18:00.092Z</time></trkpt><trkpt lat="46.6017542" lon="12.4795352"><ele>1215.6666666666665</ele><time>2026-04-24T17:18:02.06Z</time></trkpt><trkpt lat="46.6017905" lon="12.4794409"><ele>1215.3333333333333</ele><time>2026-04-24T17:18:04.059Z</time></trkpt><trkpt lat="46.601829" lon="12.4793558"><ele>1215.0</ele><time>2026-04-24T17:18:06.057Z</time></trkpt><trkpt lat="46.6018582" lon="12.4792702"><ele>1214.6666666666667</ele><time>2026-04-24T17:18:08.061Z</time></trkpt><trkpt lat="46.601962" lon="12.4792032"><ele>1214.3333333333335</ele><time>2026-04-24T17:18:11.059Z</time></trkpt><trkpt lat="46.6020539" lon="12.4792065"><ele>1214.0</ele><time>2026-04-24T17:18:13.06Z</time></trkpt><trkpt lat="46.6021254" lon="12.4791944"><ele>1214.0</ele><time>2026-04-24T17:18:15.059Z</time></trkpt><trkpt lat="46.6021938" lon="12.4791779"><ele>1214.0</ele><time>2026-04-24T17:18:17.06Z</time></trkpt><trkpt lat="46.602239" lon="12.4793972"><ele>1214.0</ele><time>2026-04-24T17:18:19.083Z</time></trkpt><trkpt lat="46.6022803" lon="12.4794706"><ele>1214.0</ele><time>2026-04-24T17:18:20.06Z</time></trkpt><trkpt lat="46.6023567" lon="12.4795207"><ele>1214.0</ele><time>2026-04-24T17:18:22.059Z</time></trkpt><trkpt lat="46.6024229" lon="12.479569"><ele>1213.9999999999998</ele><time>2026-04-24T17:18:24.061Z</time></trkpt><trkpt lat="46.6024828" lon="12.479623"><ele>1214.0</ele><time>2026-04-24T17:18:26.061Z</time></trkpt><trkpt lat="46.6025423" lon="12.479664"><ele>1214.0</ele><time>2026-04-24T17:18:28.06Z</time></trkpt><trkpt lat="46.6025965" lon="12.4796147"><ele>1214.0</ele><time>2026-04-24T17:18:30.06Z</time></trkpt><trkpt lat="46.6026122" lon="12.4795132"><ele>1214.0</ele><time>2026-04-24T17:18:32.061Z</time></trkpt><trkpt lat="46.6026298" lon="12.4794107"><ele>1213.9999999999998</ele><time>2026-04-24T17:18:34.06Z</time></trkpt><trkpt lat="46.6026685" lon="12.4793195"><ele>1214.0</ele><time>2026-04-24T17:18:36.059Z</time></trkpt><trkpt lat="46.602718" lon="12.47925"><ele>1214.0</ele><time>2026-04-24T17:18:38.059Z</time></trkpt><trkpt lat="46.6027804" lon="12.4792159"><ele>1214.0</ele><time>2026-04-24T17:18:40.06Z</time></trkpt></trkseg></trk></gpx>